KAY26E KMCO-GOBD
Flight info
| Callsign | KAY26E |
|---|---|
| Flight time | 7h 3m |
| Altitude | 41000 |
| Route | MZULO3 LENDS M203 SNAGY 2960N 2957N 2950N 2945N 2842N 2740N 2434N ULTEM UR976 LUMPO R976 LIGOV |
| Aircraft | A359/H-SDE2E3GHIJ3J4J5LM1ORWXY/LB1D1 |
Departure
| Time | 2026-04-25 11:09 |
|---|---|
| Airport | Orlando International Airport (KMCO) |
Arrival
| Time | 2026-04-25 18:12 |
|---|---|
| Airport | Blaise Diagne International Airport (GOBD) |
| Time | Latitude | Longitude | Altitude | Speed | Heading |
|---|---|---|---|---|---|
| 2026-04-25 09:52 | 28.41087 | -81.31696 | 104 ft | 0 kts | 0° |
| 2026-04-25 10:22 | 28.41092 | -81.31696 | 103 ft | 0 kts | 360° |
| 2026-04-25 10:46 | 28.41070 | -81.31696 | 101 ft | 1 kts | 360° |
| 2026-04-25 10:46 | 28.41046 | -81.31696 | 100 ft | 4 kts | 0° |
| 2026-04-25 10:46 | 28.41021 | -81.31696 | 99 ft | 4 kts | 354° |
| 2026-04-25 10:47 | 28.40999 | -81.31687 | 100 ft | 4 kts | 300° |
| 2026-04-25 10:47 | 28.40995 | -81.31661 | 99 ft | 4 kts | 270° |
| 2026-04-25 10:47 | 28.40995 | -81.31636 | 98 ft | 1 kts | 270° |
| 2026-04-25 10:49 | 28.40995 | -81.31663 | 99 ft | 12 kts | 270° |
| 2026-04-25 10:49 | 28.40995 | -81.31777 | 101 ft | 11 kts | 270° |
| 2026-04-25 10:50 | 28.40995 | -81.31817 | 101 ft | 0 kts | 270° |
| 2026-04-25 10:50 | 28.40995 | -81.31818 | 101 ft | 0 kts | 270° |
| 2026-04-25 10:51 | 28.40995 | -81.31846 | 101 ft | 15 kts | 270° |
| 2026-04-25 10:51 | 28.41078 | -81.31913 | 104 ft | 16 kts | 3° |
| 2026-04-25 10:51 | 28.41220 | -81.31909 | 104 ft | 27 kts | 0° |
| 2026-04-25 10:51 | 28.41408 | -81.31911 | 107 ft | 27 kts | 359° |
| 2026-04-25 10:52 | 28.41510 | -81.31918 | 105 ft | 12 kts | 343° |
| 2026-04-25 10:52 | 28.41616 | -81.31981 | 105 ft | 24 kts | 358° |
| 2026-04-25 10:52 | 28.41820 | -81.31983 | 105 ft | 32 kts | 360° |
| 2026-04-25 10:52 | 28.42046 | -81.31987 | 105 ft | 32 kts | 359° |
| 2026-04-25 10:53 | 28.42227 | -81.31981 | 105 ft | 19 kts | 15° |
| 2026-04-25 10:53 | 28.42265 | -81.31868 | 105 ft | 17 kts | 90° |
| 2026-04-25 10:53 | 28.42265 | -81.31720 | 107 ft | 22 kts | 89° |
| 2026-04-25 10:53 | 28.42268 | -81.31526 | 103 ft | 27 kts | 89° |
| 2026-04-25 10:54 | 28.42268 | -81.31294 | 101 ft | 32 kts | 92° |
| 2026-04-25 10:54 | 28.42251 | -81.31125 | 102 ft | 34 kts | 99° |
| 2026-04-25 10:54 | 28.42246 | -81.30773 | 102 ft | 32 kts | 85° |
| 2026-04-25 10:54 | 28.42261 | -81.30561 | 103 ft | 20 kts | 85° |
| 2026-04-25 10:55 | 28.42273 | -81.30388 | 101 ft | 24 kts | 85° |
| 2026-04-25 10:55 | 28.42278 | -81.30184 | 101 ft | 28 kts | 90° |
| 2026-04-25 10:55 | 28.42280 | -81.29950 | 101 ft | 31 kts | 89° |
| 2026-04-25 10:55 | 28.42341 | -81.29795 | 105 ft | 22 kts | 5° |
| 2026-04-25 10:56 | 28.42512 | -81.29795 | 103 ft | 27 kts | 359° |
| 2026-04-25 10:56 | 28.42714 | -81.29797 | 103 ft | 28 kts | 359° |
| 2026-04-25 10:56 | 28.42824 | -81.29799 | 103 ft | 0 kts | 359° |
| 2026-04-25 10:57 | 28.42920 | -81.29800 | 102 ft | 26 kts | 0° |
| 2026-04-25 10:57 | 28.43108 | -81.29801 | 104 ft | 28 kts | 359° |
| 2026-04-25 10:58 | 28.43303 | -81.29803 | 103 ft | 27 kts | 359° |
| 2026-04-25 10:58 | 28.43470 | -81.29806 | 102 ft | 12 kts | 358° |
| 2026-04-25 10:58 | 28.43515 | -81.29801 | 103 ft | 2 kts | 17° |
| 2026-04-25 10:58 | 28.43516 | -81.29801 | 103 ft | 0 kts | 18° |
| 2026-04-25 10:59 | 28.43519 | -81.29799 | 103 ft | 0 kts | 22° |
| 2026-04-25 11:02 | 28.43544 | -81.29767 | 104 ft | 11 kts | 64° |
| 2026-04-25 11:02 | 28.43550 | -81.29711 | 104 ft | 0 kts | 91° |
| 2026-04-25 11:03 | 28.43550 | -81.29705 | 104 ft | 0 kts | 91° |
| 2026-04-25 11:05 | 28.43550 | -81.29680 | 104 ft | 16 kts | 91° |
| 2026-04-25 11:05 | 28.43482 | -81.29588 | 105 ft | 13 kts | 176° |
| 2026-04-25 11:05 | 28.43471 | -81.29587 | 105 ft | 0 kts | 178° |
| 2026-04-25 11:08 | 28.43433 | -81.29586 | 104 ft | 31 kts | 179° |
| 2026-04-25 11:08 | 28.42889 | -81.29579 | 106 ft | 124 kts | 179° |
| 2026-04-25 11:09 | 28.41787 | -81.29571 | 296 ft | 186 kts | 179° |
| 2026-04-25 11:09 | 28.40432 | -81.29516 | 1218 ft | 200 kts | 178° |
| 2026-04-25 11:09 | 28.39003 | -81.29387 | 1938 ft | 211 kts | 172° |
| 2026-04-25 11:09 | 28.37547 | -81.28831 | 2181 ft | 232 kts | 152° |
| 2026-04-25 11:10 | 28.36114 | -81.27824 | 2444 ft | 251 kts | 147° |
| 2026-04-25 11:10 | 28.35140 | -81.27039 | 2733 ft | 258 kts | 142° |
| 2026-04-25 11:10 | 28.33553 | -81.25012 | 3478 ft | 264 kts | 119° |
| 2026-04-25 11:10 | 28.33050 | -81.23005 | 4035 ft | 267 kts | 90° |
| 2026-04-25 11:11 | 28.33535 | -81.20996 | 4625 ft | 267 kts | 56° |
| 2026-04-25 11:11 | 28.34765 | -81.19421 | 5245 ft | 267 kts | 44° |
| 2026-04-25 11:11 | 28.36075 | -81.17906 | 5824 ft | 271 kts | 46° |
| 2026-04-25 11:11 | 28.37355 | -81.16323 | 6395 ft | 273 kts | 47° |
| 2026-04-25 11:12 | 28.38590 | -81.14678 | 6956 ft | 276 kts | 50° |
| 2026-04-25 11:12 | 28.39787 | -81.12951 | 7500 ft | 280 kts | 52° |
| 2026-04-25 11:12 | 28.40936 | -81.11147 | 8045 ft | 283 kts | 54° |
| 2026-04-25 11:12 | 28.42023 | -81.09267 | 8602 ft | 287 kts | 57° |
| 2026-04-25 11:13 | 28.43045 | -81.07304 | 9165 ft | 291 kts | 59° |
| 2026-04-25 11:13 | 28.43992 | -81.05259 | 9729 ft | 294 kts | 62° |
| 2026-04-25 11:13 | 28.44858 | -81.03134 | 10200 ft | 301 kts | 65° |
| 2026-04-25 11:13 | 28.45654 | -81.00876 | 10424 ft | 316 kts | 69° |
| 2026-04-25 11:14 | 28.46346 | -80.98444 | 10651 ft | 330 kts | 73° |
| 2026-04-25 11:14 | 28.46889 | -80.95855 | 10859 ft | 344 kts | 78° |
| 2026-04-25 11:14 | 28.47243 | -80.93115 | 11064 ft | 357 kts | 83° |
| 2026-04-25 11:14 | 28.47379 | -80.90257 | 11348 ft | 366 kts | 88° |
| 2026-04-25 11:15 | 28.47599 | -80.87372 | 11778 ft | 368 kts | 80° |
| 2026-04-25 11:15 | 28.48028 | -80.84487 | 12201 ft | 372 kts | 79° |
| 2026-04-25 11:15 | 28.48296 | -80.81557 | 12632 ft | 376 kts | 86° |
| 2026-04-25 11:15 | 28.48430 | -80.78575 | 13072 ft | 379 kts | 85° |
| 2026-04-25 11:16 | 28.48877 | -80.72582 | 13892 ft | 384 kts | 82° |
| 2026-04-25 11:16 | 28.49170 | -80.69549 | 14255 ft | 387 kts | 82° |
| 2026-04-25 11:16 | 28.49485 | -80.66499 | 14615 ft | 389 kts | 82° |
| 2026-04-25 11:17 | 28.49812 | -80.63432 | 14963 ft | 392 kts | 81° |
| 2026-04-25 11:17 | 28.50146 | -80.60349 | 15319 ft | 394 kts | 81° |
| 2026-04-25 11:17 | 28.50485 | -80.57242 | 15692 ft | 397 kts | 81° |
| 2026-04-25 11:17 | 28.50827 | -80.54118 | 16076 ft | 400 kts | 81° |
| 2026-04-25 11:18 | 28.51171 | -80.50972 | 16438 ft | 403 kts | 81° |
| 2026-04-25 11:18 | 28.51519 | -80.47798 | 16805 ft | 406 kts | 81° |
| 2026-04-25 11:18 | 28.51868 | -80.44605 | 17180 ft | 408 kts | 81° |
| 2026-04-25 11:18 | 28.52219 | -80.41391 | 17549 ft | 411 kts | 81° |
| 2026-04-25 11:19 | 28.52571 | -80.38159 | 17912 ft | 414 kts | 81° |
| 2026-04-25 11:19 | 28.52926 | -80.34900 | 18264 ft | 417 kts | 81° |
| 2026-04-25 11:19 | 28.53292 | -80.31627 | 18581 ft | 419 kts | 80° |
| 2026-04-25 11:19 | 28.53931 | -80.28400 | 18904 ft | 418 kts | 69° |
| 2026-04-25 11:20 | 28.54985 | -80.25315 | 19238 ft | 418 kts | 64° |
| 2026-04-25 11:20 | 28.56142 | -80.22276 | 19560 ft | 420 kts | 64° |
| 2026-04-25 11:20 | 28.57314 | -80.19219 | 19885 ft | 422 kts | 64° |
| 2026-04-25 11:20 | 28.58487 | -80.16145 | 20234 ft | 424 kts | 64° |
| 2026-04-25 11:21 | 28.59264 | -80.14103 | 20422 ft | 426 kts | 64° |
| 2026-04-25 11:21 | 28.60441 | -80.11000 | 20759 ft | 427 kts | 64° |
| 2026-04-25 11:21 | 28.61617 | -80.07896 | 21091 ft | 429 kts | 64° |
| 2026-04-25 11:21 | 28.62801 | -80.04767 | 21395 ft | 431 kts | 64° |
| 2026-04-25 11:22 | 28.63987 | -80.01629 | 21704 ft | 433 kts | 64° |
| 2026-04-25 11:22 | 28.65177 | -79.98477 | 22010 ft | 434 kts | 64° |
| 2026-04-25 11:22 | 28.66373 | -79.95306 | 22307 ft | 436 kts | 64° |
| 2026-04-25 11:22 | 28.67569 | -79.92131 | 22602 ft | 438 kts | 65° |
| 2026-04-25 11:23 | 28.68772 | -79.88934 | 22898 ft | 440 kts | 65° |
| 2026-04-25 11:23 | 28.69978 | -79.85729 | 23190 ft | 441 kts | 65° |
| 2026-04-25 11:23 | 28.71188 | -79.82508 | 23477 ft | 443 kts | 65° |
| 2026-04-25 11:23 | 28.72401 | -79.79278 | 23708 ft | 445 kts | 65° |
| 2026-04-25 11:24 | 28.73616 | -79.76040 | 23944 ft | 446 kts | 65° |
| 2026-04-25 11:24 | 28.74839 | -79.72776 | 24180 ft | 448 kts | 65° |
| 2026-04-25 11:24 | 28.76062 | -79.69512 | 24417 ft | 449 kts | 65° |
| 2026-04-25 11:24 | 28.77291 | -79.66228 | 24632 ft | 450 kts | 65° |
| 2026-04-25 11:25 | 28.78501 | -79.62990 | 24867 ft | 451 kts | 65° |
| 2026-04-25 11:25 | 28.79735 | -79.59686 | 25113 ft | 453 kts | 65° |
| 2026-04-25 11:25 | 28.81071 | -79.56440 | 25336 ft | 452 kts | 59° |
| 2026-04-25 11:25 | 28.82757 | -79.53419 | 25563 ft | 451 kts | 52° |
| 2026-04-25 11:26 | 28.84579 | -79.50502 | 25805 ft | 452 kts | 52° |
| 2026-04-25 11:26 | 28.86415 | -79.47599 | 26075 ft | 453 kts | 52° |
| 2026-04-25 11:26 | 28.88260 | -79.44675 | 26313 ft | 454 kts | 52° |
| 2026-04-25 11:26 | 28.90105 | -79.41743 | 26547 ft | 456 kts | 52° |
| 2026-04-25 11:27 | 28.91957 | -79.38795 | 26770 ft | 458 kts | 52° |
| 2026-04-25 11:27 | 28.93805 | -79.35852 | 27008 ft | 459 kts | 52° |
| 2026-04-25 11:27 | 28.95671 | -79.32874 | 27275 ft | 460 kts | 52° |
| 2026-04-25 11:27 | 28.96904 | -79.30905 | 27460 ft | 461 kts | 52° |
| 2026-04-25 11:28 | 28.99408 | -79.26905 | 27816 ft | 463 kts | 52° |
| 2026-04-25 11:28 | 29.01282 | -79.23908 | 28080 ft | 465 kts | 52° |
| 2026-04-25 11:28 | 29.03164 | -79.20897 | 28361 ft | 466 kts | 52° |
| 2026-04-25 11:28 | 29.05049 | -79.17878 | 28641 ft | 468 kts | 52° |
| 2026-04-25 11:29 | 29.06940 | -79.14846 | 28922 ft | 469 kts | 52° |
| 2026-04-25 11:29 | 29.08838 | -79.11802 | 29193 ft | 471 kts | 52° |
| 2026-04-25 11:29 | 29.10743 | -79.08745 | 29508 ft | 472 kts | 52° |
| 2026-04-25 11:29 | 29.12646 | -79.05688 | 29841 ft | 473 kts | 52° |
| 2026-04-25 11:30 | 29.14565 | -79.02604 | 30036 ft | 477 kts | 52° |
| 2026-04-25 11:30 | 29.16492 | -78.99505 | 30271 ft | 479 kts | 52° |
| 2026-04-25 11:30 | 29.18427 | -78.96388 | 30539 ft | 481 kts | 52° |
| 2026-04-25 11:30 | 29.20357 | -78.93280 | 30803 ft | 482 kts | 52° |
| 2026-04-25 11:31 | 29.22309 | -78.90132 | 31053 ft | 484 kts | 52° |
| 2026-04-25 11:31 | 29.24251 | -78.86999 | 31313 ft | 485 kts | 53° |
| 2026-04-25 11:31 | 29.26212 | -78.83832 | 31566 ft | 487 kts | 53° |
| 2026-04-25 11:31 | 29.28172 | -78.80666 | 31809 ft | 489 kts | 53° |
| 2026-04-25 11:32 | 29.30137 | -78.77487 | 32029 ft | 490 kts | 53° |
| 2026-04-25 11:32 | 29.32116 | -78.74285 | 32276 ft | 492 kts | 53° |
| 2026-04-25 11:32 | 29.34095 | -78.71080 | 32503 ft | 493 kts | 53° |
| 2026-04-25 11:32 | 29.35941 | -78.67816 | 32745 ft | 495 kts | 59° |
| 2026-04-25 11:33 | 29.37430 | -78.64187 | 32987 ft | 498 kts | 68° |
| 2026-04-25 11:33 | 29.38628 | -78.60518 | 33172 ft | 500 kts | 69° |
| 2026-04-25 11:33 | 29.39704 | -78.56718 | 33428 ft | 501 kts | 74° |
| 2026-04-25 11:33 | 29.40392 | -78.52806 | 33761 ft | 500 kts | 79° |
| 2026-04-25 11:34 | 29.40938 | -78.48863 | 34087 ft | 499 kts | 80° |
| 2026-04-25 11:34 | 29.41442 | -78.44924 | 34337 ft | 499 kts | 81° |
| 2026-04-25 11:34 | 29.41931 | -78.40978 | 34529 ft | 500 kts | 81° |
| 2026-04-25 11:34 | 29.42417 | -78.37041 | 34759 ft | 500 kts | 81° |
| 2026-04-25 11:35 | 29.42907 | -78.33087 | 34999 ft | 500 kts | 81° |
| 2026-04-25 11:35 | 29.43401 | -78.29142 | 35222 ft | 500 kts | 80° |
| 2026-04-25 11:35 | 29.43900 | -78.25181 | 35445 ft | 500 kts | 80° |
| 2026-04-25 11:35 | 29.44398 | -78.21237 | 35676 ft | 500 kts | 80° |
| 2026-04-25 11:36 | 29.44898 | -78.17280 | 35903 ft | 501 kts | 80° |
| 2026-04-25 11:36 | 29.45396 | -78.13333 | 36129 ft | 501 kts | 80° |
| 2026-04-25 11:36 | 29.45896 | -78.09364 | 36358 ft | 501 kts | 80° |
| 2026-04-25 11:36 | 29.46392 | -78.05414 | 36579 ft | 501 kts | 80° |
| 2026-04-25 11:37 | 29.46888 | -78.01450 | 36818 ft | 501 kts | 80° |
| 2026-04-25 11:37 | 29.47382 | -77.97492 | 37035 ft | 502 kts | 80° |
| 2026-04-25 11:37 | 29.47868 | -77.93584 | 37246 ft | 502 kts | 80° |
| 2026-04-25 11:37 | 29.48362 | -77.89614 | 37407 ft | 504 kts | 80° |
| 2026-04-25 11:38 | 29.48855 | -77.85627 | 37620 ft | 504 kts | 80° |
| 2026-04-25 11:38 | 29.49347 | -77.81650 | 37845 ft | 503 kts | 80° |
| 2026-04-25 11:38 | 29.49836 | -77.77677 | 38052 ft | 504 kts | 80° |
| 2026-04-25 11:38 | 29.50327 | -77.73684 | 38259 ft | 504 kts | 80° |
| 2026-04-25 11:39 | 29.50815 | -77.69704 | 38444 ft | 504 kts | 80° |
| 2026-04-25 11:39 | 29.51307 | -77.65718 | 38640 ft | 504 kts | 80° |
| 2026-04-25 11:39 | 29.51793 | -77.61734 | 38783 ft | 504 kts | 80° |
| 2026-04-25 11:39 | 29.52276 | -77.57753 | 38917 ft | 505 kts | 80° |
| 2026-04-25 11:40 | 29.52760 | -77.53756 | 39049 ft | 505 kts | 81° |
| 2026-04-25 11:40 | 29.53241 | -77.49769 | 39290 ft | 502 kts | 80° |
| 2026-04-25 11:40 | 29.53719 | -77.45800 | 39442 ft | 502 kts | 80° |
| 2026-04-25 11:40 | 29.54197 | -77.41824 | 39538 ft | 503 kts | 80° |
| 2026-04-25 11:41 | 29.54674 | -77.37847 | 39653 ft | 503 kts | 80° |
| 2026-04-25 11:41 | 29.55151 | -77.33866 | 39776 ft | 503 kts | 80° |
| 2026-04-25 11:41 | 29.55627 | -77.29882 | 39877 ft | 504 kts | 80° |
| 2026-04-25 11:41 | 29.56096 | -77.25947 | 39989 ft | 504 kts | 80° |
| 2026-04-25 11:42 | 29.57044 | -77.17971 | 40199 ft | 504 kts | 81° |
| 2026-04-25 11:42 | 29.57522 | -77.13924 | 40318 ft | 504 kts | 81° |
| 2026-04-25 11:42 | 29.57987 | -77.09982 | 40406 ft | 505 kts | 81° |
| 2026-04-25 11:43 | 29.58931 | -77.01937 | 40602 ft | 505 kts | 81° |
| 2026-04-25 11:43 | 29.59860 | -76.93990 | 40774 ft | 506 kts | 81° |
| 2026-04-25 11:44 | 29.60685 | -76.85963 | 40928 ft | 507 kts | 86° |
| 2026-04-25 11:44 | 29.60993 | -76.77852 | 40996 ft | 508 kts | 87° |
| 2026-04-25 11:45 | 29.61204 | -76.69754 | 40993 ft | 508 kts | 88° |
| 2026-04-25 11:45 | 29.61399 | -76.61643 | 40999 ft | 507 kts | 88° |
| 2026-04-25 11:46 | 29.61597 | -76.53529 | 40999 ft | 507 kts | 88° |
| 2026-04-25 11:46 | 29.61796 | -76.45429 | 41001 ft | 507 kts | 88° |
| 2026-04-25 11:47 | 29.61990 | -76.37351 | 41002 ft | 506 kts | 88° |
| 2026-04-25 11:47 | 29.62179 | -76.29252 | 41001 ft | 506 kts | 88° |
| 2026-04-25 11:48 | 29.62363 | -76.21167 | 41001 ft | 506 kts | 88° |
| 2026-04-25 11:48 | 29.62542 | -76.13077 | 41000 ft | 506 kts | 88° |
| 2026-04-25 11:49 | 29.62717 | -76.04995 | 41004 ft | 506 kts | 88° |
| 2026-04-25 11:49 | 29.62885 | -75.96918 | 41004 ft | 505 kts | 88° |
| 2026-04-25 11:50 | 29.63050 | -75.88840 | 41007 ft | 505 kts | 88° |
| 2026-04-25 11:50 | 29.63209 | -75.80764 | 41017 ft | 505 kts | 89° |
| 2026-04-25 11:51 | 29.63363 | -75.72727 | 41010 ft | 501 kts | 89° |
| 2026-04-25 11:51 | 29.63510 | -75.64775 | 41010 ft | 500 kts | 89° |
| 2026-04-25 11:52 | 29.63653 | -75.56780 | 41009 ft | 501 kts | 89° |
| 2026-04-25 11:52 | 29.63792 | -75.48783 | 41009 ft | 501 kts | 89° |
| 2026-04-25 11:53 | 29.63926 | -75.40784 | 41009 ft | 501 kts | 89° |
| 2026-04-25 11:53 | 29.64055 | -75.32773 | 41010 ft | 501 kts | 89° |
| 2026-04-25 11:54 | 29.64179 | -75.24774 | 41013 ft | 501 kts | 89° |
| 2026-04-25 11:55 | 29.64356 | -75.12765 | 41012 ft | 501 kts | 89° |
| 2026-04-25 11:55 | 29.64468 | -75.04762 | 41006 ft | 501 kts | 89° |
| 2026-04-25 11:56 | 29.64576 | -74.96749 | 41012 ft | 501 kts | 89° |
| 2026-04-25 11:56 | 29.64679 | -74.88718 | 41015 ft | 501 kts | 89° |
| 2026-04-25 11:57 | 29.64776 | -74.80711 | 41015 ft | 501 kts | 89° |
| 2026-04-25 11:57 | 29.64869 | -74.72690 | 41015 ft | 501 kts | 89° |
| 2026-04-25 11:58 | 29.64957 | -74.64730 | 41015 ft | 501 kts | 89° |
| 2026-04-25 11:58 | 29.65040 | -74.56719 | 41018 ft | 501 kts | 89° |
| 2026-04-25 11:59 | 29.65119 | -74.48694 | 41018 ft | 501 kts | 89° |
| 2026-04-25 11:59 | 29.65193 | -74.40686 | 41018 ft | 501 kts | 90° |
| 2026-04-25 12:00 | 29.65295 | -74.28660 | 41023 ft | 502 kts | 90° |
| 2026-04-25 12:01 | 29.65385 | -74.16615 | 41022 ft | 503 kts | 90° |
| 2026-04-25 12:01 | 29.65440 | -74.08576 | 41020 ft | 502 kts | 90° |
| 2026-04-25 12:02 | 29.65513 | -73.96534 | 41020 ft | 503 kts | 90° |
| 2026-04-25 12:02 | 29.65555 | -73.88482 | 41020 ft | 504 kts | 90° |
| 2026-04-25 12:03 | 29.65593 | -73.80425 | 41020 ft | 504 kts | 90° |
| 2026-04-25 12:03 | 29.65626 | -73.72380 | 41021 ft | 504 kts | 90° |
| 2026-04-25 12:04 | 29.65654 | -73.64327 | 41015 ft | 504 kts | 90° |
| 2026-04-25 12:04 | 29.65677 | -73.56269 | 41021 ft | 505 kts | 90° |
| 2026-04-25 12:05 | 29.65695 | -73.48196 | 41023 ft | 505 kts | 90° |
| 2026-04-25 12:05 | 29.65709 | -73.40127 | 41023 ft | 505 kts | 90° |
| 2026-04-25 12:06 | 29.65717 | -73.32076 | 41026 ft | 505 kts | 90° |
| 2026-04-25 12:06 | 29.65721 | -73.24008 | 41023 ft | 506 kts | 90° |
| 2026-04-25 12:07 | 29.65719 | -73.15894 | 41027 ft | 506 kts | 90° |
| 2026-04-25 12:07 | 29.65713 | -73.07840 | 41020 ft | 506 kts | 90° |
| 2026-04-25 12:08 | 29.65702 | -72.99755 | 41030 ft | 506 kts | 90° |
| 2026-04-25 12:08 | 29.65686 | -72.91651 | 41031 ft | 507 kts | 90° |
| 2026-04-25 12:09 | 29.65665 | -72.83534 | 41030 ft | 508 kts | 90° |
| 2026-04-25 12:09 | 29.65639 | -72.75406 | 41029 ft | 508 kts | 90° |
| 2026-04-25 12:10 | 29.65614 | -72.68651 | 41032 ft | 508 kts | 90° |
| 2026-04-25 12:10 | 29.65579 | -72.60534 | 41031 ft | 508 kts | 90° |
| 2026-04-25 12:11 | 29.65539 | -72.52397 | 41034 ft | 509 kts | 91° |
| 2026-04-25 12:11 | 29.65493 | -72.44252 | 41031 ft | 510 kts | 91° |
| 2026-04-25 12:12 | 29.65443 | -72.36103 | 41029 ft | 510 kts | 91° |
| 2026-04-25 12:12 | 29.65388 | -72.27946 | 41031 ft | 510 kts | 91° |
| 2026-04-25 12:13 | 29.65328 | -72.19794 | 41033 ft | 511 kts | 91° |
| 2026-04-25 12:13 | 29.65263 | -72.11618 | 41026 ft | 512 kts | 91° |
| 2026-04-25 12:14 | 29.65192 | -72.03435 | 41032 ft | 512 kts | 91° |
| 2026-04-25 12:14 | 29.65117 | -71.95278 | 41035 ft | 511 kts | 91° |
| 2026-04-25 12:15 | 29.65037 | -71.87116 | 41032 ft | 512 kts | 91° |
| 2026-04-25 12:15 | 29.64952 | -71.78936 | 41032 ft | 513 kts | 91° |
| 2026-04-25 12:16 | 29.64860 | -71.70676 | 41032 ft | 514 kts | 91° |
| 2026-04-25 12:16 | 29.64765 | -71.62466 | 41037 ft | 514 kts | 91° |
| 2026-04-25 12:17 | 29.64664 | -71.54307 | 41030 ft | 512 kts | 91° |
| 2026-04-25 12:17 | 29.64559 | -71.46120 | 41039 ft | 513 kts | 91° |
| 2026-04-25 12:18 | 29.64448 | -71.37912 | 41035 ft | 513 kts | 91° |
| 2026-04-25 12:18 | 29.64332 | -71.29705 | 41027 ft | 513 kts | 91° |
| 2026-04-25 12:19 | 29.64149 | -71.17406 | 41030 ft | 513 kts | 91° |
| 2026-04-25 12:20 | 29.64020 | -71.09213 | 41038 ft | 513 kts | 91° |
| 2026-04-25 12:20 | 29.63887 | -71.01001 | 41031 ft | 513 kts | 91° |
| 2026-04-25 12:21 | 29.63748 | -70.92808 | 41031 ft | 513 kts | 91° |
| 2026-04-25 12:21 | 29.63606 | -70.84665 | 41036 ft | 513 kts | 91° |
| 2026-04-25 12:22 | 29.63456 | -70.76390 | 41035 ft | 515 kts | 91° |
| 2026-04-25 12:22 | 29.63302 | -70.68215 | 41029 ft | 515 kts | 91° |
| 2026-04-25 12:23 | 29.63143 | -70.59977 | 41032 ft | 515 kts | 92° |
| 2026-04-25 12:23 | 29.62978 | -70.51741 | 41037 ft | 515 kts | 92° |
| 2026-04-25 12:24 | 29.62808 | -70.43486 | 41042 ft | 517 kts | 92° |
| 2026-04-25 12:24 | 29.62633 | -70.35229 | 41040 ft | 517 kts | 92° |
| 2026-04-25 12:25 | 29.62452 | -70.26961 | 41041 ft | 517 kts | 92° |
| 2026-04-25 12:25 | 29.62266 | -70.18692 | 41037 ft | 517 kts | 92° |
| 2026-04-25 12:26 | 29.62076 | -70.10418 | 41041 ft | 519 kts | 92° |
| 2026-04-25 12:26 | 29.61878 | -70.02106 | 41037 ft | 520 kts | 92° |
| 2026-04-25 12:27 | 29.61676 | -69.93799 | 41040 ft | 520 kts | 92° |
| 2026-04-25 12:27 | 29.61469 | -69.85493 | 41042 ft | 520 kts | 92° |
| 2026-04-25 12:28 | 29.61257 | -69.77217 | 41046 ft | 522 kts | 92° |
| 2026-04-25 12:28 | 29.61039 | -69.68888 | 41045 ft | 522 kts | 92° |
| 2026-04-25 12:29 | 29.60815 | -69.60552 | 41045 ft | 522 kts | 92° |
| 2026-04-25 12:29 | 29.60586 | -69.52205 | 41042 ft | 522 kts | 92° |
| 2026-04-25 12:30 | 29.60352 | -69.43864 | 41049 ft | 523 kts | 92° |
| 2026-04-25 12:30 | 29.60112 | -69.35524 | 41049 ft | 523 kts | 92° |
| 2026-04-25 12:31 | 29.59867 | -69.27166 | 41048 ft | 522 kts | 92° |
| 2026-04-25 12:31 | 29.59617 | -69.18819 | 41044 ft | 522 kts | 93° |
| 2026-04-25 12:32 | 29.59362 | -69.10472 | 41048 ft | 524 kts | 93° |
| 2026-04-25 12:32 | 29.59100 | -69.02091 | 41047 ft | 525 kts | 93° |
| 2026-04-25 12:33 | 29.58834 | -68.93723 | 41049 ft | 525 kts | 93° |
| 2026-04-25 12:33 | 29.58563 | -68.85393 | 41043 ft | 524 kts | 93° |
| 2026-04-25 12:34 | 29.58285 | -68.76996 | 41047 ft | 526 kts | 93° |
| 2026-04-25 12:34 | 29.58002 | -68.68604 | 41045 ft | 527 kts | 93° |
| 2026-04-25 12:35 | 29.57714 | -68.60207 | 41044 ft | 526 kts | 93° |
| 2026-04-25 12:35 | 29.57419 | -68.51787 | 41038 ft | 527 kts | 94° |
| 2026-04-25 12:36 | 29.57120 | -68.43378 | 41049 ft | 528 kts | 94° |
| 2026-04-25 12:36 | 29.56814 | -68.34960 | 41045 ft | 528 kts | 94° |
| 2026-04-25 12:37 | 29.56502 | -68.26515 | 41046 ft | 528 kts | 94° |
| 2026-04-25 12:37 | 29.56189 | -68.18155 | 41037 ft | 528 kts | 94° |
| 2026-04-25 12:38 | 29.55867 | -68.09723 | 41045 ft | 528 kts | 94° |
| 2026-04-25 12:38 | 29.55539 | -68.01278 | 41045 ft | 528 kts | 94° |
| 2026-04-25 12:39 | 29.55207 | -67.92847 | 41048 ft | 528 kts | 94° |
| 2026-04-25 12:39 | 29.54869 | -67.84420 | 41048 ft | 528 kts | 94° |
| 2026-04-25 12:40 | 29.54526 | -67.75990 | 41047 ft | 528 kts | 94° |
| 2026-04-25 12:40 | 29.54179 | -67.67575 | 41048 ft | 528 kts | 94° |
| 2026-04-25 12:41 | 29.53825 | -67.59138 | 41048 ft | 528 kts | 94° |
| 2026-04-25 12:41 | 29.53465 | -67.50704 | 41046 ft | 528 kts | 94° |
| 2026-04-25 12:42 | 29.53101 | -67.42284 | 41050 ft | 528 kts | 94° |
| 2026-04-25 12:42 | 29.52731 | -67.33855 | 41051 ft | 529 kts | 94° |
| 2026-04-25 12:43 | 29.52356 | -67.25416 | 41047 ft | 529 kts | 94° |
| 2026-04-25 12:43 | 29.51783 | -67.12770 | 41043 ft | 529 kts | 95° |
| 2026-04-25 12:44 | 29.51394 | -67.04333 | 41044 ft | 529 kts | 95° |
| 2026-04-25 12:45 | 29.50804 | -66.91737 | 41047 ft | 529 kts | 95° |
| 2026-04-25 12:45 | 29.50199 | -66.79089 | 41050 ft | 529 kts | 95° |
| 2026-04-25 12:46 | 29.49789 | -66.70655 | 41045 ft | 529 kts | 95° |
| 2026-04-25 12:46 | 29.49374 | -66.62234 | 41046 ft | 529 kts | 95° |
| 2026-04-25 12:47 | 29.48954 | -66.53808 | 41041 ft | 529 kts | 95° |
| 2026-04-25 12:47 | 29.48526 | -66.45350 | 41048 ft | 531 kts | 95° |
| 2026-04-25 12:48 | 29.48094 | -66.36898 | 41048 ft | 531 kts | 95° |
| 2026-04-25 12:48 | 29.47655 | -66.28430 | 41048 ft | 531 kts | 96° |
| 2026-04-25 12:49 | 29.47213 | -66.19968 | 41049 ft | 532 kts | 96° |
| 2026-04-25 12:49 | 29.46760 | -66.11454 | 41044 ft | 536 kts | 96° |
| 2026-04-25 12:50 | 29.46303 | -66.02962 | 41045 ft | 536 kts | 96° |
| 2026-04-25 12:50 | 29.45840 | -65.94431 | 41049 ft | 536 kts | 96° |
| 2026-04-25 12:51 | 29.45370 | -65.85869 | 41046 ft | 538 kts | 97° |
| 2026-04-25 12:51 | 29.44891 | -65.77275 | 41046 ft | 540 kts | 97° |
| 2026-04-25 12:52 | 29.44408 | -65.68687 | 41046 ft | 540 kts | 97° |
| 2026-04-25 12:52 | 29.43919 | -65.60092 | 41036 ft | 540 kts | 98° |
| 2026-04-25 12:53 | 29.43423 | -65.51479 | 41062 ft | 543 kts | 98° |
| 2026-04-25 12:53 | 29.42919 | -65.42827 | 41047 ft | 543 kts | 98° |
| 2026-04-25 12:54 | 29.42414 | -65.34246 | 41048 ft | 541 kts | 98° |
| 2026-04-25 12:54 | 29.41902 | -65.25627 | 41041 ft | 542 kts | 98° |
| 2026-04-25 12:55 | 29.41554 | -65.19863 | 41049 ft | 544 kts | 98° |
| 2026-04-25 12:55 | 29.40851 | -65.08302 | 41042 ft | 546 kts | 98° |
| 2026-04-25 12:56 | 29.40318 | -64.99620 | 41042 ft | 545 kts | 98° |
| 2026-04-25 12:56 | 29.39780 | -64.90940 | 41042 ft | 548 kts | 99° |
| 2026-04-25 12:57 | 29.39228 | -64.82190 | 41046 ft | 552 kts | 99° |
| 2026-04-25 12:57 | 29.38765 | -64.74885 | 41050 ft | 551 kts | 99° |
| 2026-04-25 12:58 | 29.38207 | -64.66135 | 41050 ft | 551 kts | 99° |
| 2026-04-25 12:58 | 29.37641 | -64.57375 | 41059 ft | 551 kts | 99° |
| 2026-04-25 12:59 | 29.37067 | -64.48593 | 41054 ft | 551 kts | 99° |
| 2026-04-25 12:59 | 29.36489 | -64.39848 | 41059 ft | 551 kts | 99° |
| 2026-04-25 13:00 | 29.36004 | -64.32571 | 41047 ft | 551 kts | 100° |
| 2026-04-25 13:00 | 29.35310 | -64.22288 | 41051 ft | 555 kts | 100° |
| 2026-04-25 13:01 | 29.34715 | -64.13530 | 41051 ft | 556 kts | 100° |
| 2026-04-25 13:01 | 29.34111 | -64.04701 | 41032 ft | 555 kts | 100° |
| 2026-04-25 13:02 | 29.33497 | -63.95848 | 41049 ft | 558 kts | 100° |
| 2026-04-25 13:02 | 29.32875 | -63.86969 | 41048 ft | 559 kts | 100° |
| 2026-04-25 13:03 | 29.32248 | -63.78079 | 41050 ft | 559 kts | 100° |
| 2026-04-25 13:03 | 29.31615 | -63.69197 | 41047 ft | 560 kts | 100° |
| 2026-04-25 13:04 | 29.30972 | -63.60290 | 41056 ft | 561 kts | 100° |
| 2026-04-25 13:04 | 29.30327 | -63.51397 | 41052 ft | 561 kts | 100° |
| 2026-04-25 13:05 | 29.29678 | -63.42538 | 41034 ft | 561 kts | 100° |
| 2026-04-25 13:05 | 29.29014 | -63.33574 | 41048 ft | 563 kts | 100° |
| 2026-04-25 13:06 | 29.28350 | -63.24685 | 41047 ft | 563 kts | 100° |
| 2026-04-25 13:06 | 29.27677 | -63.15756 | 41049 ft | 563 kts | 100° |
| 2026-04-25 13:07 | 29.26999 | -63.06836 | 41050 ft | 564 kts | 100° |
| 2026-04-25 13:07 | 29.26308 | -62.97837 | 41049 ft | 566 kts | 101° |
| 2026-04-25 13:08 | 29.25615 | -62.88879 | 41048 ft | 566 kts | 101° |
| 2026-04-25 13:08 | 29.24914 | -62.79892 | 41040 ft | 566 kts | 101° |
| 2026-04-25 13:09 | 29.24210 | -62.70959 | 41047 ft | 568 kts | 101° |
| 2026-04-25 13:09 | 29.23494 | -62.61945 | 41048 ft | 568 kts | 101° |
| 2026-04-25 13:10 | 29.22773 | -62.52939 | 41048 ft | 568 kts | 101° |
| 2026-04-25 13:10 | 29.22045 | -62.43924 | 41051 ft | 570 kts | 101° |
| 2026-04-25 13:11 | 29.21308 | -62.34883 | 41043 ft | 570 kts | 101° |
| 2026-04-25 13:11 | 29.20565 | -62.25831 | 41043 ft | 570 kts | 101° |
| 2026-04-25 13:12 | 29.19818 | -62.16811 | 41042 ft | 570 kts | 101° |
| 2026-04-25 13:12 | 29.19190 | -62.09287 | 41050 ft | 571 kts | 101° |
| 2026-04-25 13:13 | 29.18300 | -61.98717 | 41046 ft | 571 kts | 101° |
| 2026-04-25 13:13 | 29.17534 | -61.89693 | 41049 ft | 570 kts | 101° |
| 2026-04-25 13:14 | 29.16760 | -61.80647 | 41052 ft | 571 kts | 101° |
| 2026-04-25 13:14 | 29.15980 | -61.71601 | 41045 ft | 571 kts | 101° |
| 2026-04-25 13:15 | 29.15198 | -61.62615 | 41049 ft | 571 kts | 101° |
| 2026-04-25 13:15 | 29.14406 | -61.53570 | 41056 ft | 571 kts | 101° |
| 2026-04-25 13:16 | 29.13612 | -61.44572 | 41046 ft | 571 kts | 101° |
| 2026-04-25 13:16 | 29.12805 | -61.35512 | 41047 ft | 571 kts | 101° |
| 2026-04-25 13:17 | 29.11994 | -61.26464 | 41045 ft | 571 kts | 101° |
| 2026-04-25 13:17 | 29.11178 | -61.17440 | 41041 ft | 571 kts | 101° |
| 2026-04-25 13:18 | 29.10354 | -61.08385 | 41043 ft | 571 kts | 101° |
| 2026-04-25 13:18 | 29.09525 | -60.99352 | 41047 ft | 572 kts | 101° |
| 2026-04-25 13:19 | 29.08689 | -60.90303 | 41046 ft | 572 kts | 101° |
| 2026-04-25 13:19 | 29.07989 | -60.82781 | 41042 ft | 572 kts | 102° |
| 2026-04-25 13:20 | 29.06999 | -60.72213 | 41043 ft | 572 kts | 102° |
| 2026-04-25 13:20 | 29.06146 | -60.63183 | 41047 ft | 572 kts | 102° |
| 2026-04-25 13:21 | 29.05284 | -60.54128 | 41048 ft | 572 kts | 102° |
| 2026-04-25 13:21 | 29.04419 | -60.45099 | 41035 ft | 572 kts | 102° |
| 2026-04-25 13:22 | 29.03547 | -60.36071 | 41045 ft | 572 kts | 102° |
| 2026-04-25 13:23 | 29.02226 | -60.22502 | 41045 ft | 572 kts | 102° |
| 2026-04-25 13:23 | 29.01343 | -60.13520 | 41041 ft | 572 kts | 102° |
| 2026-04-25 13:24 | 29.00447 | -60.04463 | 41046 ft | 573 kts | 102° |
| 2026-04-25 13:24 | 29.00059 | -59.95323 | 41049 ft | 578 kts | 94° |
| 2026-04-25 13:25 | 29.00106 | -59.86125 | 41037 ft | 579 kts | 93° |
| 2026-04-25 13:25 | 29.00220 | -59.76909 | 41043 ft | 580 kts | 93° |
| 2026-04-25 13:26 | 29.00323 | -59.67695 | 41043 ft | 580 kts | 93° |
| 2026-04-25 13:26 | 29.00406 | -59.58477 | 41036 ft | 580 kts | 93° |
| 2026-04-25 13:27 | 29.00475 | -59.49254 | 41040 ft | 581 kts | 93° |
| 2026-04-25 13:27 | 29.00538 | -59.40021 | 41041 ft | 581 kts | 93° |
| 2026-04-25 13:28 | 29.00596 | -59.30792 | 41024 ft | 581 kts | 93° |
| 2026-04-25 13:28 | 29.00648 | -59.21633 | 41043 ft | 581 kts | 93° |
| 2026-04-25 13:29 | 29.00694 | -59.12399 | 41042 ft | 581 kts | 93° |
| 2026-04-25 13:29 | 29.00734 | -59.03158 | 41040 ft | 581 kts | 93° |
| 2026-04-25 13:30 | 29.00781 | -58.89298 | 41043 ft | 582 kts | 93° |
| 2026-04-25 13:31 | 29.00814 | -58.75399 | 41039 ft | 582 kts | 93° |
| 2026-04-25 13:31 | 29.00828 | -58.66145 | 41040 ft | 582 kts | 93° |
| 2026-04-25 13:32 | 29.00836 | -58.56881 | 41037 ft | 582 kts | 93° |
| 2026-04-25 13:32 | 29.00838 | -58.47638 | 41021 ft | 582 kts | 93° |
| 2026-04-25 13:33 | 29.00833 | -58.38383 | 41040 ft | 582 kts | 93° |
| 2026-04-25 13:33 | 29.00824 | -58.30691 | 41039 ft | 582 kts | 93° |
| 2026-04-25 13:34 | 29.00804 | -58.19898 | 41027 ft | 582 kts | 93° |
| 2026-04-25 13:34 | 29.00780 | -58.10633 | 41040 ft | 582 kts | 93° |
| 2026-04-25 13:35 | 29.00750 | -58.01373 | 41037 ft | 583 kts | 93° |
| 2026-04-25 13:35 | 29.00714 | -57.92117 | 41022 ft | 583 kts | 93° |
| 2026-04-25 13:36 | 29.00671 | -57.82840 | 41039 ft | 583 kts | 93° |
| 2026-04-25 13:36 | 29.00622 | -57.73587 | 41040 ft | 583 kts | 94° |
| 2026-04-25 13:37 | 29.00566 | -57.64378 | 41026 ft | 583 kts | 94° |
| 2026-04-25 13:37 | 29.00504 | -57.55094 | 41039 ft | 583 kts | 94° |
| 2026-04-25 13:38 | 29.00436 | -57.45830 | 41033 ft | 583 kts | 94° |
| 2026-04-25 13:38 | 29.00361 | -57.36569 | 41018 ft | 583 kts | 94° |
| 2026-04-25 13:39 | 29.00280 | -57.27304 | 41034 ft | 583 kts | 94° |
| 2026-04-25 13:39 | 29.00193 | -57.18054 | 41034 ft | 583 kts | 94° |
| 2026-04-25 13:40 | 29.00100 | -57.08800 | 41026 ft | 582 kts | 94° |
| 2026-04-25 13:40 | 29.00000 | -56.99541 | 41032 ft | 583 kts | 94° |
| 2026-04-25 13:41 | 29.00107 | -56.90266 | 41026 ft | 584 kts | 90° |
| 2026-04-25 13:41 | 29.00365 | -56.82565 | 41023 ft | 584 kts | 90° |
| 2026-04-25 13:42 | 29.00660 | -56.73286 | 41033 ft | 584 kts | 90° |
| 2026-04-25 13:42 | 29.00899 | -56.64017 | 41031 ft | 583 kts | 91° |
| 2026-04-25 13:43 | 29.01109 | -56.54753 | 41019 ft | 583 kts | 91° |
| 2026-04-25 13:43 | 29.01310 | -56.45480 | 41028 ft | 584 kts | 91° |
| 2026-04-25 13:44 | 29.01508 | -56.36194 | 41026 ft | 584 kts | 91° |
| 2026-04-25 13:44 | 29.01702 | -56.26918 | 41026 ft | 584 kts | 91° |
| 2026-04-25 13:45 | 29.01890 | -56.17628 | 41033 ft | 584 kts | 91° |
| 2026-04-25 13:45 | 29.02070 | -56.08357 | 41031 ft | 583 kts | 91° |
| 2026-04-25 13:46 | 29.02243 | -55.99151 | 41030 ft | 583 kts | 91° |
| 2026-04-25 13:46 | 29.02411 | -55.89882 | 41029 ft | 583 kts | 91° |
| 2026-04-25 13:47 | 29.02573 | -55.80612 | 41033 ft | 583 kts | 91° |
| 2026-04-25 13:47 | 29.02728 | -55.71328 | 41031 ft | 584 kts | 91° |
| 2026-04-25 13:48 | 29.02877 | -55.62045 | 41027 ft | 584 kts | 91° |
| 2026-04-25 13:48 | 29.03020 | -55.52773 | 41031 ft | 584 kts | 91° |
| 2026-04-25 13:49 | 29.03156 | -55.43496 | 41033 ft | 584 kts | 91° |
| 2026-04-25 13:49 | 29.03286 | -55.34222 | 41026 ft | 583 kts | 91° |
| 2026-04-25 13:50 | 29.03408 | -55.25023 | 41012 ft | 583 kts | 91° |
| 2026-04-25 13:50 | 29.03525 | -55.15737 | 41026 ft | 584 kts | 91° |
| 2026-04-25 13:51 | 29.03636 | -55.06450 | 41026 ft | 584 kts | 91° |
| 2026-04-25 13:51 | 29.03740 | -54.97181 | 41018 ft | 584 kts | 91° |
| 2026-04-25 13:52 | 29.03838 | -54.87888 | 41031 ft | 585 kts | 91° |
| 2026-04-25 13:52 | 29.03930 | -54.78574 | 41016 ft | 585 kts | 92° |
| 2026-04-25 13:53 | 29.04015 | -54.69332 | 41027 ft | 585 kts | 92° |
| 2026-04-25 13:53 | 29.04094 | -54.60028 | 41027 ft | 584 kts | 92° |
| 2026-04-25 13:54 | 29.04167 | -54.50735 | 41028 ft | 584 kts | 92° |
| 2026-04-25 13:54 | 29.04233 | -54.41438 | 41023 ft | 585 kts | 92° |
| 2026-04-25 13:55 | 29.04292 | -54.32135 | 41034 ft | 585 kts | 92° |
| 2026-04-25 13:55 | 29.04346 | -54.22834 | 41021 ft | 585 kts | 92° |
| 2026-04-25 13:56 | 29.04392 | -54.13521 | 41028 ft | 586 kts | 92° |
| 2026-04-25 13:56 | 29.04433 | -54.04189 | 41035 ft | 587 kts | 92° |
| 2026-04-25 13:57 | 29.04468 | -53.94858 | 41049 ft | 587 kts | 92° |
| 2026-04-25 13:57 | 29.04496 | -53.85541 | 41029 ft | 586 kts | 92° |
| 2026-04-25 13:58 | 29.04517 | -53.76221 | 41025 ft | 586 kts | 92° |
| 2026-04-25 13:58 | 29.04531 | -53.66971 | 41023 ft | 587 kts | 92° |
| 2026-04-25 13:59 | 29.04540 | -53.57620 | 41029 ft | 588 kts | 92° |
| 2026-04-25 13:59 | 29.04542 | -53.48285 | 41030 ft | 588 kts | 92° |
| 2026-04-25 14:00 | 29.04539 | -53.40441 | 41024 ft | 588 kts | 92° |
| 2026-04-25 14:00 | 29.04527 | -53.29579 | 41029 ft | 588 kts | 92° |
| 2026-04-25 14:01 | 29.04509 | -53.20258 | 41039 ft | 589 kts | 92° |
| 2026-04-25 14:01 | 29.04486 | -53.10900 | 41040 ft | 587 kts | 92° |
| 2026-04-25 14:02 | 29.04455 | -53.01560 | 41037 ft | 587 kts | 93° |
| 2026-04-25 14:02 | 29.04418 | -52.92229 | 41021 ft | 588 kts | 93° |
| 2026-04-25 14:03 | 29.04375 | -52.82881 | 41024 ft | 588 kts | 93° |
| 2026-04-25 14:03 | 29.04325 | -52.73517 | 41014 ft | 588 kts | 93° |
| 2026-04-25 14:04 | 29.04268 | -52.64153 | 41033 ft | 590 kts | 93° |
| 2026-04-25 14:04 | 29.04206 | -52.54760 | 41030 ft | 591 kts | 93° |
| 2026-04-25 14:05 | 29.04136 | -52.45372 | 41046 ft | 591 kts | 93° |
| 2026-04-25 14:05 | 29.04061 | -52.35990 | 41022 ft | 589 kts | 93° |
| 2026-04-25 14:06 | 29.03979 | -52.26701 | 41016 ft | 588 kts | 93° |
| 2026-04-25 14:06 | 29.03889 | -52.17336 | 41033 ft | 591 kts | 93° |
| 2026-04-25 14:07 | 29.03794 | -52.07938 | 41037 ft | 592 kts | 93° |
| 2026-04-25 14:07 | 29.03692 | -51.98530 | 41038 ft | 593 kts | 93° |
| 2026-04-25 14:08 | 29.03583 | -51.89122 | 41036 ft | 593 kts | 93° |
| 2026-04-25 14:08 | 29.03467 | -51.79695 | 41010 ft | 593 kts | 93° |
| 2026-04-25 14:09 | 29.03345 | -51.70257 | 41042 ft | 593 kts | 93° |
| 2026-04-25 14:09 | 29.03217 | -51.60856 | 41038 ft | 591 kts | 93° |
| 2026-04-25 14:10 | 29.03082 | -51.51465 | 41030 ft | 592 kts | 93° |
| 2026-04-25 14:10 | 29.02939 | -51.42043 | 41036 ft | 594 kts | 93° |
| 2026-04-25 14:11 | 29.02791 | -51.32614 | 41012 ft | 594 kts | 93° |
| 2026-04-25 14:11 | 29.02635 | -51.23165 | 41032 ft | 595 kts | 93° |
| 2026-04-25 14:12 | 29.02473 | -51.13714 | 41032 ft | 595 kts | 93° |
| 2026-04-25 14:12 | 29.02305 | -51.04261 | 41056 ft | 595 kts | 94° |
| 2026-04-25 14:13 | 29.02131 | -50.94824 | 41040 ft | 592 kts | 94° |
| 2026-04-25 14:13 | 29.01949 | -50.85415 | 41028 ft | 592 kts | 93° |
| 2026-04-25 14:14 | 29.01760 | -50.76000 | 41042 ft | 593 kts | 94° |
| 2026-04-25 14:14 | 29.01565 | -50.66572 | 41035 ft | 594 kts | 94° |
| 2026-04-25 14:15 | 29.01365 | -50.57189 | 41033 ft | 594 kts | 94° |
| 2026-04-25 14:15 | 29.01157 | -50.47741 | 41034 ft | 595 kts | 94° |
| 2026-04-25 14:16 | 29.00942 | -50.38295 | 41029 ft | 595 kts | 93° |
| 2026-04-25 14:16 | 29.00722 | -50.28855 | 41042 ft | 594 kts | 94° |
| 2026-04-25 14:17 | 29.00494 | -50.19424 | 41026 ft | 593 kts | 94° |
| 2026-04-25 14:17 | 29.00260 | -50.10012 | 41040 ft | 594 kts | 94° |
| 2026-04-25 14:18 | 29.00018 | -50.00560 | 41038 ft | 595 kts | 94° |
| 2026-04-25 14:18 | 28.99979 | -49.91101 | 41038 ft | 596 kts | 90° |
| 2026-04-25 14:19 | 29.00237 | -49.81635 | 41040 ft | 596 kts | 89° |
| 2026-04-25 14:19 | 29.00481 | -49.72181 | 41029 ft | 596 kts | 89° |
| 2026-04-25 14:20 | 29.00656 | -49.62703 | 41043 ft | 596 kts | 90° |
| 2026-04-25 14:20 | 29.00797 | -49.53238 | 41038 ft | 596 kts | 90° |
| 2026-04-25 14:21 | 29.00930 | -49.43747 | 41042 ft | 597 kts | 90° |
| 2026-04-25 14:21 | 29.01060 | -49.34278 | 41048 ft | 597 kts | 90° |
| 2026-04-25 14:22 | 29.01186 | -49.24795 | 41055 ft | 597 kts | 90° |
| 2026-04-25 14:22 | 29.01306 | -49.15370 | 41069 ft | 597 kts | 90° |
| 2026-04-25 14:23 | 29.01420 | -49.05829 | 41048 ft | 596 kts | 90° |
| 2026-04-25 14:23 | 29.01525 | -48.96357 | 41058 ft | 596 kts | 90° |
| 2026-04-25 14:24 | 29.01624 | -48.86935 | 41052 ft | 596 kts | 90° |
| 2026-04-25 14:24 | 29.01717 | -48.77470 | 41050 ft | 597 kts | 90° |
| 2026-04-25 14:25 | 29.01803 | -48.67981 | 41051 ft | 597 kts | 90° |
| 2026-04-25 14:25 | 29.01882 | -48.58500 | 41056 ft | 597 kts | 90° |
| 2026-04-25 14:26 | 29.01956 | -48.49017 | 41059 ft | 596 kts | 90° |
| 2026-04-25 14:26 | 29.02021 | -48.39556 | 41050 ft | 596 kts | 90° |
| 2026-04-25 14:27 | 29.02071 | -48.31671 | 41054 ft | 596 kts | 90° |
| 2026-04-25 14:27 | 29.02125 | -48.22195 | 41060 ft | 597 kts | 90° |
| 2026-04-25 14:28 | 29.02173 | -48.12710 | 41065 ft | 597 kts | 90° |
| 2026-04-25 14:28 | 29.02213 | -48.03218 | 41063 ft | 597 kts | 90° |
| 2026-04-25 14:29 | 29.02247 | -47.93745 | 41069 ft | 597 kts | 90° |
| 2026-04-25 14:29 | 29.02275 | -47.84273 | 41067 ft | 596 kts | 90° |
| 2026-04-25 14:30 | 29.02295 | -47.74784 | 41061 ft | 597 kts | 90° |
| 2026-04-25 14:30 | 29.02314 | -47.60550 | 41074 ft | 597 kts | 90° |
| 2026-04-25 14:31 | 29.02318 | -47.51134 | 41070 ft | 597 kts | 90° |
| 2026-04-25 14:31 | 29.02316 | -47.41593 | 41093 ft | 597 kts | 90° |
| 2026-04-25 14:32 | 29.02306 | -47.32177 | 41071 ft | 596 kts | 90° |
| 2026-04-25 14:32 | 29.02290 | -47.22692 | 41071 ft | 596 kts | 90° |
| 2026-04-25 14:33 | 29.02268 | -47.13224 | 41069 ft | 597 kts | 90° |
| 2026-04-25 14:33 | 29.02239 | -47.03739 | 41073 ft | 597 kts | 90° |
| 2026-04-25 14:34 | 29.02203 | -46.94271 | 41086 ft | 597 kts | 90° |
| 2026-04-25 14:34 | 29.02161 | -46.84769 | 41081 ft | 597 kts | 90° |
| 2026-04-25 14:35 | 29.02112 | -46.75301 | 41077 ft | 597 kts | 90° |
| 2026-04-25 14:35 | 29.02056 | -46.65808 | 41077 ft | 597 kts | 90° |
| 2026-04-25 14:36 | 29.01993 | -46.56327 | 41073 ft | 597 kts | 90° |
| 2026-04-25 14:36 | 29.01924 | -46.46850 | 41086 ft | 597 kts | 90° |
| 2026-04-25 14:37 | 29.01848 | -46.37373 | 41080 ft | 597 kts | 90° |
| 2026-04-25 14:37 | 29.01767 | -46.27958 | 41087 ft | 596 kts | 91° |
| 2026-04-25 14:38 | 29.01677 | -46.18477 | 41084 ft | 596 kts | 91° |
| 2026-04-25 14:38 | 29.01582 | -46.09004 | 41084 ft | 596 kts | 91° |
| 2026-04-25 14:39 | 29.01480 | -45.99530 | 41085 ft | 596 kts | 91° |
| 2026-04-25 14:39 | 29.01371 | -45.90062 | 41083 ft | 596 kts | 91° |
| 2026-04-25 14:40 | 29.01255 | -45.80584 | 41114 ft | 596 kts | 91° |
| 2026-04-25 14:40 | 29.01133 | -45.71116 | 41090 ft | 596 kts | 91° |
| 2026-04-25 14:41 | 29.01004 | -45.61655 | 41096 ft | 596 kts | 91° |
| 2026-04-25 14:41 | 29.00869 | -45.52176 | 41092 ft | 596 kts | 91° |
| 2026-04-25 14:42 | 29.00751 | -45.44310 | 41093 ft | 596 kts | 91° |
| 2026-04-25 14:42 | 29.00578 | -45.33237 | 41093 ft | 596 kts | 91° |
| 2026-04-25 14:43 | 29.00424 | -45.23786 | 41099 ft | 595 kts | 91° |
| 2026-04-25 14:43 | 29.00263 | -45.14387 | 41090 ft | 595 kts | 91° |
| 2026-04-25 14:44 | 29.00090 | -45.04937 | 41100 ft | 595 kts | 91° |
| 2026-04-25 14:44 | 28.99631 | -45.00182 | 41097 ft | 593 kts | 104° |
| 2026-04-25 14:44 | 28.98560 | -44.95660 | 41104 ft | 589 kts | 111° |
| 2026-04-25 14:45 | 28.95919 | -44.86881 | 41099 ft | 588 kts | 114° |
| 2026-04-25 14:45 | 28.93054 | -44.78115 | 41103 ft | 589 kts | 115° |
| 2026-04-25 14:46 | 28.90184 | -44.69366 | 41105 ft | 589 kts | 114° |
| 2026-04-25 14:46 | 28.87340 | -44.60597 | 41111 ft | 589 kts | 114° |
| 2026-04-25 14:47 | 28.84983 | -44.53302 | 41086 ft | 588 kts | 114° |
| 2026-04-25 14:47 | 28.81670 | -44.43066 | 41093 ft | 590 kts | 114° |
| 2026-04-25 14:48 | 28.78816 | -44.34277 | 41107 ft | 590 kts | 114° |
| 2026-04-25 14:48 | 28.75962 | -44.25516 | 41096 ft | 590 kts | 114° |
| 2026-04-25 14:49 | 28.73095 | -44.16743 | 41107 ft | 590 kts | 114° |
| 2026-04-25 14:49 | 28.70223 | -44.07970 | 41107 ft | 590 kts | 114° |
| 2026-04-25 14:50 | 28.67350 | -43.99217 | 41104 ft | 590 kts | 114° |
| 2026-04-25 14:50 | 28.64468 | -43.90462 | 41112 ft | 590 kts | 114° |
| 2026-04-25 14:51 | 28.61579 | -43.81703 | 41118 ft | 591 kts | 114° |
| 2026-04-25 14:51 | 28.58690 | -43.72969 | 41113 ft | 590 kts | 114° |
| 2026-04-25 14:52 | 28.55791 | -43.64227 | 41108 ft | 591 kts | 114° |
| 2026-04-25 14:52 | 28.53375 | -43.56959 | 41115 ft | 591 kts | 114° |
| 2026-04-25 14:53 | 28.49972 | -43.46741 | 41112 ft | 591 kts | 114° |
| 2026-04-25 14:53 | 28.47073 | -43.38061 | 41101 ft | 590 kts | 114° |
| 2026-04-25 14:54 | 28.44148 | -43.29326 | 41111 ft | 591 kts | 114° |
| 2026-04-25 14:54 | 28.41220 | -43.20604 | 41113 ft | 591 kts | 114° |
| 2026-04-25 14:55 | 28.38286 | -43.11886 | 41116 ft | 591 kts | 114° |
| 2026-04-25 14:55 | 28.35324 | -43.03106 | 41119 ft | 592 kts | 114° |
| 2026-04-25 14:56 | 28.32394 | -42.94441 | 41111 ft | 592 kts | 114° |
| 2026-04-25 14:56 | 28.29441 | -42.85729 | 41116 ft | 592 kts | 114° |
| 2026-04-25 14:57 | 28.26484 | -42.77028 | 41112 ft | 592 kts | 114° |
| 2026-04-25 14:57 | 28.23515 | -42.68313 | 41116 ft | 592 kts | 114° |
| 2026-04-25 14:58 | 28.20540 | -42.59597 | 41126 ft | 592 kts | 114° |
| 2026-04-25 14:58 | 28.17563 | -42.50898 | 41116 ft | 591 kts | 114° |
| 2026-04-25 14:59 | 28.14590 | -42.42233 | 41118 ft | 591 kts | 114° |
| 2026-04-25 14:59 | 28.11598 | -42.33535 | 41114 ft | 591 kts | 114° |
| 2026-04-25 15:00 | 28.08608 | -42.24858 | 41117 ft | 591 kts | 114° |
| 2026-04-25 15:00 | 28.05634 | -42.16253 | 41122 ft | 591 kts | 114° |
| 2026-04-25 15:01 | 28.02631 | -42.07584 | 41120 ft | 591 kts | 114° |
| 2026-04-25 15:01 | 27.99429 | -41.99033 | 41131 ft | 587 kts | 122° |
| 2026-04-25 15:02 | 27.95601 | -41.90919 | 41098 ft | 585 kts | 123° |
| 2026-04-25 15:02 | 27.91635 | -41.82839 | 41122 ft | 586 kts | 124° |
| 2026-04-25 15:03 | 27.87660 | -41.74795 | 41126 ft | 586 kts | 124° |
| 2026-04-25 15:03 | 27.83697 | -41.66757 | 41121 ft | 585 kts | 123° |
| 2026-04-25 15:04 | 27.79735 | -41.58718 | 41122 ft | 586 kts | 123° |
| 2026-04-25 15:04 | 27.75765 | -41.50672 | 41124 ft | 587 kts | 123° |
| 2026-04-25 15:05 | 27.71790 | -41.42631 | 41124 ft | 586 kts | 123° |
| 2026-04-25 15:06 | 27.65825 | -41.30600 | 41125 ft | 587 kts | 123° |
| 2026-04-25 15:06 | 27.61819 | -41.22538 | 41124 ft | 587 kts | 123° |
| 2026-04-25 15:07 | 27.57826 | -41.14516 | 41124 ft | 587 kts | 123° |
| 2026-04-25 15:07 | 27.53845 | -41.06535 | 41124 ft | 588 kts | 123° |
| 2026-04-25 15:08 | 27.49831 | -40.98504 | 41120 ft | 588 kts | 124° |
| 2026-04-25 15:08 | 27.45814 | -40.90478 | 41133 ft | 588 kts | 124° |
| 2026-04-25 15:09 | 27.41794 | -40.82463 | 41114 ft | 588 kts | 123° |
| 2026-04-25 15:09 | 27.35744 | -40.70430 | 41125 ft | 588 kts | 124° |
| 2026-04-25 15:10 | 27.31718 | -40.62440 | 41126 ft | 588 kts | 124° |
| 2026-04-25 15:11 | 27.25649 | -40.50425 | 41117 ft | 588 kts | 124° |
| 2026-04-25 15:11 | 27.21606 | -40.42438 | 41121 ft | 588 kts | 124° |
| 2026-04-25 15:12 | 27.16202 | -40.31788 | 41110 ft | 588 kts | 124° |
| 2026-04-25 15:12 | 27.12833 | -40.25160 | 41126 ft | 588 kts | 124° |
| 2026-04-25 15:13 | 27.06048 | -40.11843 | 41120 ft | 589 kts | 124° |
| 2026-04-25 15:14 | 27.01998 | -40.03914 | 41117 ft | 589 kts | 124° |
| 2026-04-25 15:14 | 26.97956 | -39.95931 | 41128 ft | 589 kts | 122° |
| 2026-04-25 15:15 | 26.94765 | -39.89117 | 41112 ft | 590 kts | 120° |
| 2026-04-25 15:15 | 26.90419 | -39.79619 | 41124 ft | 590 kts | 120° |
| 2026-04-25 15:16 | 26.86616 | -39.71437 | 41122 ft | 590 kts | 121° |
| 2026-04-25 15:16 | 26.80874 | -39.59245 | 41124 ft | 590 kts | 121° |
| 2026-04-25 15:17 | 26.75112 | -39.47058 | 41105 ft | 590 kts | 121° |
| 2026-04-25 15:18 | 26.71269 | -39.38940 | 41132 ft | 590 kts | 121° |
| 2026-04-25 15:18 | 26.65499 | -39.26780 | 41126 ft | 590 kts | 121° |
| 2026-04-25 15:19 | 26.62293 | -39.20037 | 41123 ft | 591 kts | 121° |
| 2026-04-25 15:19 | 26.57789 | -39.10581 | 41135 ft | 590 kts | 121° |
| 2026-04-25 15:20 | 26.53934 | -39.02507 | 41109 ft | 590 kts | 121° |
| 2026-04-25 15:20 | 26.50056 | -38.94399 | 41109 ft | 591 kts | 121° |
| 2026-04-25 15:21 | 26.46183 | -38.86315 | 41110 ft | 590 kts | 121° |
| 2026-04-25 15:21 | 26.42312 | -38.78251 | 41121 ft | 589 kts | 121° |
| 2026-04-25 15:22 | 26.38440 | -38.70198 | 41119 ft | 589 kts | 121° |
| 2026-04-25 15:22 | 26.34562 | -38.62151 | 41126 ft | 589 kts | 121° |
| 2026-04-25 15:23 | 26.30683 | -38.54115 | 41116 ft | 589 kts | 121° |
| 2026-04-25 15:23 | 26.26803 | -38.46088 | 41121 ft | 588 kts | 121° |
| 2026-04-25 15:24 | 26.22945 | -38.38125 | 41125 ft | 588 kts | 121° |
| 2026-04-25 15:24 | 26.19679 | -38.31397 | 41121 ft | 589 kts | 121° |
| 2026-04-25 15:25 | 26.15155 | -38.22089 | 41122 ft | 587 kts | 121° |
| 2026-04-25 15:25 | 26.11267 | -38.14106 | 41125 ft | 587 kts | 121° |
| 2026-04-25 15:26 | 26.07359 | -38.06098 | 41122 ft | 588 kts | 121° |
| 2026-04-25 15:26 | 26.03450 | -37.98102 | 41097 ft | 588 kts | 121° |
| 2026-04-25 15:27 | 25.99550 | -37.90136 | 41121 ft | 587 kts | 121° |
| 2026-04-25 15:28 | 25.93671 | -37.78157 | 41123 ft | 588 kts | 121° |
| 2026-04-25 15:28 | 25.89748 | -37.70182 | 41128 ft | 588 kts | 121° |
| 2026-04-25 15:29 | 25.85820 | -37.62211 | 41119 ft | 587 kts | 121° |
| 2026-04-25 15:29 | 25.81900 | -37.54268 | 41120 ft | 586 kts | 121° |
| 2026-04-25 15:30 | 25.77971 | -37.46323 | 41135 ft | 586 kts | 121° |
| 2026-04-25 15:30 | 25.74037 | -37.38383 | 41119 ft | 588 kts | 121° |
| 2026-04-25 15:31 | 25.70099 | -37.30445 | 41123 ft | 587 kts | 121° |
| 2026-04-25 15:31 | 25.66165 | -37.22531 | 41127 ft | 586 kts | 121° |
| 2026-04-25 15:32 | 25.62221 | -37.14613 | 41119 ft | 587 kts | 121° |
| 2026-04-25 15:32 | 25.58279 | -37.06711 | 41121 ft | 587 kts | 121° |
| 2026-04-25 15:33 | 25.52386 | -36.94922 | 41124 ft | 584 kts | 121° |
| 2026-04-25 15:33 | 25.48442 | -36.87050 | 41121 ft | 585 kts | 121° |
| 2026-04-25 15:34 | 25.44488 | -36.79172 | 41119 ft | 585 kts | 122° |
| 2026-04-25 15:34 | 25.41176 | -36.72582 | 41128 ft | 585 kts | 121° |
| 2026-04-25 15:35 | 25.34569 | -36.59467 | 41118 ft | 587 kts | 121° |
| 2026-04-25 15:36 | 25.28599 | -36.47646 | 41121 ft | 587 kts | 122° |
| 2026-04-25 15:36 | 25.24614 | -36.39774 | 41111 ft | 586 kts | 122° |
| 2026-04-25 15:37 | 25.20635 | -36.31925 | 41119 ft | 584 kts | 122° |
| 2026-04-25 15:37 | 25.16670 | -36.24120 | 41135 ft | 584 kts | 122° |
| 2026-04-25 15:38 | 25.12683 | -36.16286 | 41121 ft | 586 kts | 122° |
| 2026-04-25 15:38 | 25.08689 | -36.08448 | 41123 ft | 586 kts | 122° |
| 2026-04-25 15:39 | 25.04718 | -36.00666 | 41110 ft | 583 kts | 122° |
| 2026-04-25 15:39 | 25.00728 | -35.92862 | 41121 ft | 584 kts | 122° |
| 2026-04-25 15:40 | 24.98054 | -35.87641 | 41121 ft | 584 kts | 122° |
| 2026-04-25 15:40 | 24.92730 | -35.77262 | 41116 ft | 584 kts | 122° |
| 2026-04-25 15:41 | 24.88729 | -35.69474 | 41105 ft | 583 kts | 122° |
| 2026-04-25 15:41 | 24.84752 | -35.61748 | 41127 ft | 583 kts | 122° |
| 2026-04-25 15:42 | 24.80716 | -35.53921 | 41128 ft | 584 kts | 122° |
| 2026-04-25 15:42 | 24.76729 | -35.46202 | 41107 ft | 584 kts | 122° |
| 2026-04-25 15:43 | 24.72719 | -35.38449 | 41119 ft | 582 kts | 122° |
| 2026-04-25 15:43 | 24.68707 | -35.30704 | 41122 ft | 582 kts | 122° |
| 2026-04-25 15:44 | 24.64694 | -35.22973 | 41130 ft | 582 kts | 122° |
| 2026-04-25 15:44 | 24.60674 | -35.15240 | 41120 ft | 583 kts | 122° |
| 2026-04-25 15:45 | 24.56651 | -35.07512 | 41118 ft | 581 kts | 122° |
| 2026-04-25 15:45 | 24.53993 | -35.02414 | 41123 ft | 580 kts | 122° |
| 2026-04-25 15:46 | 24.48625 | -34.92136 | 41122 ft | 581 kts | 122° |
| 2026-04-25 15:46 | 24.44598 | -34.84438 | 41123 ft | 581 kts | 122° |
| 2026-04-25 15:47 | 24.40567 | -34.76746 | 41120 ft | 580 kts | 122° |
| 2026-04-25 15:47 | 24.36549 | -34.69090 | 41126 ft | 579 kts | 123° |
| 2026-04-25 15:48 | 24.32519 | -34.61426 | 41124 ft | 580 kts | 123° |
| 2026-04-25 15:48 | 24.28519 | -34.53830 | 41125 ft | 580 kts | 123° |
| 2026-04-25 15:49 | 24.24477 | -34.46165 | 41119 ft | 580 kts | 123° |
| 2026-04-25 15:49 | 24.20445 | -34.38529 | 41127 ft | 578 kts | 123° |
| 2026-04-25 15:50 | 24.16413 | -34.30909 | 41124 ft | 578 kts | 123° |
| 2026-04-25 15:50 | 24.12374 | -34.23286 | 41124 ft | 578 kts | 123° |
| 2026-04-25 15:51 | 24.09669 | -34.18190 | 41129 ft | 578 kts | 123° |
| 2026-04-25 15:51 | 24.04279 | -34.08046 | 41123 ft | 577 kts | 123° |
| 2026-04-25 15:52 | 24.00250 | -34.00476 | 41127 ft | 576 kts | 123° |
| 2026-04-25 15:52 | 23.96108 | -33.92981 | 41127 ft | 575 kts | 126° |
| 2026-04-25 15:53 | 23.91840 | -33.85648 | 41127 ft | 575 kts | 126° |
| 2026-04-25 15:53 | 23.87550 | -33.78277 | 41120 ft | 574 kts | 126° |
| 2026-04-25 15:54 | 23.83307 | -33.70925 | 41128 ft | 573 kts | 126° |
| 2026-04-25 15:54 | 23.79062 | -33.63550 | 41128 ft | 573 kts | 126° |
| 2026-04-25 15:55 | 23.74815 | -33.56179 | 41126 ft | 573 kts | 126° |
| 2026-04-25 15:55 | 23.70560 | -33.48809 | 41127 ft | 573 kts | 126° |
| 2026-04-25 15:56 | 23.66300 | -33.41444 | 41133 ft | 574 kts | 126° |
| 2026-04-25 15:56 | 23.62753 | -33.35320 | 41127 ft | 575 kts | 126° |
| 2026-04-25 15:57 | 23.58473 | -33.27942 | 41126 ft | 575 kts | 126° |
| 2026-04-25 15:57 | 23.54196 | -33.20577 | 41127 ft | 575 kts | 126° |
| 2026-04-25 15:58 | 23.49913 | -33.13213 | 41123 ft | 575 kts | 126° |
| 2026-04-25 15:58 | 23.45637 | -33.05871 | 41123 ft | 573 kts | 126° |
| 2026-04-25 15:59 | 23.41359 | -32.98537 | 41124 ft | 573 kts | 126° |
| 2026-04-25 15:59 | 23.37084 | -32.91221 | 41124 ft | 573 kts | 126° |
| 2026-04-25 16:00 | 23.33523 | -32.85133 | 41125 ft | 574 kts | 126° |
| 2026-04-25 16:00 | 23.28539 | -32.76625 | 41122 ft | 573 kts | 126° |
| 2026-04-25 16:01 | 23.24258 | -32.69328 | 41122 ft | 572 kts | 126° |
| 2026-04-25 16:01 | 23.19976 | -32.62039 | 41122 ft | 572 kts | 126° |
| 2026-04-25 16:02 | 23.15688 | -32.54752 | 41122 ft | 573 kts | 126° |
| 2026-04-25 16:02 | 23.11390 | -32.47460 | 41108 ft | 572 kts | 126° |
| 2026-04-25 16:03 | 23.07104 | -32.40194 | 41120 ft | 571 kts | 126° |
| 2026-04-25 16:03 | 23.02819 | -32.32942 | 41121 ft | 571 kts | 126° |
| 2026-04-25 16:04 | 22.98530 | -32.25695 | 41116 ft | 571 kts | 126° |
| 2026-04-25 16:04 | 22.94230 | -32.18439 | 41116 ft | 572 kts | 126° |
| 2026-04-25 16:05 | 22.89929 | -32.11190 | 41116 ft | 570 kts | 126° |
| 2026-04-25 16:06 | 22.83489 | -32.00355 | 41122 ft | 569 kts | 126° |
| 2026-04-25 16:06 | 22.79193 | -31.93141 | 41114 ft | 569 kts | 127° |
| 2026-04-25 16:07 | 22.74925 | -31.85984 | 41103 ft | 569 kts | 127° |
| 2026-04-25 16:07 | 22.70628 | -31.78786 | 41114 ft | 568 kts | 127° |
| 2026-04-25 16:08 | 22.66308 | -31.71560 | 41111 ft | 568 kts | 127° |
| 2026-04-25 16:08 | 22.62039 | -31.64431 | 41107 ft | 568 kts | 127° |
| 2026-04-25 16:09 | 22.57744 | -31.57267 | 41106 ft | 568 kts | 127° |
| 2026-04-25 16:09 | 22.53435 | -31.50090 | 41086 ft | 568 kts | 127° |
| 2026-04-25 16:10 | 22.49131 | -31.42932 | 41104 ft | 567 kts | 127° |
| 2026-04-25 16:10 | 22.44831 | -31.35788 | 41105 ft | 566 kts | 127° |
| 2026-04-25 16:11 | 22.40526 | -31.28647 | 41102 ft | 566 kts | 127° |
| 2026-04-25 16:11 | 22.36221 | -31.21516 | 41102 ft | 566 kts | 127° |
| 2026-04-25 16:12 | 22.31918 | -31.14397 | 41080 ft | 566 kts | 127° |
| 2026-04-25 16:12 | 22.27648 | -31.07342 | 41097 ft | 564 kts | 127° |
| 2026-04-25 16:13 | 22.23354 | -31.00255 | 41099 ft | 564 kts | 127° |
| 2026-04-25 16:13 | 22.19056 | -30.93174 | 41100 ft | 564 kts | 127° |
| 2026-04-25 16:14 | 22.14745 | -30.86081 | 41095 ft | 565 kts | 127° |
| 2026-04-25 16:14 | 22.10427 | -30.78984 | 41086 ft | 565 kts | 127° |
| 2026-04-25 16:15 | 22.06114 | -30.71904 | 41092 ft | 564 kts | 127° |
| 2026-04-25 16:15 | 22.01800 | -30.64832 | 41096 ft | 564 kts | 127° |
| 2026-04-25 16:16 | 21.97484 | -30.57768 | 41093 ft | 564 kts | 127° |
| 2026-04-25 16:16 | 21.93196 | -30.50758 | 41090 ft | 564 kts | 127° |
| 2026-04-25 16:17 | 21.88785 | -30.43556 | 41093 ft | 563 kts | 127° |
| 2026-04-25 16:17 | 21.84564 | -30.36671 | 41103 ft | 562 kts | 127° |
| 2026-04-25 16:18 | 21.80258 | -30.29659 | 41100 ft | 562 kts | 127° |
| 2026-04-25 16:18 | 21.75945 | -30.22646 | 41079 ft | 562 kts | 127° |
| 2026-04-25 16:19 | 21.71635 | -30.15645 | 41076 ft | 562 kts | 127° |
| 2026-04-25 16:19 | 21.67312 | -30.08632 | 41084 ft | 562 kts | 127° |
| 2026-04-25 16:20 | 21.60818 | -29.98114 | 41084 ft | 563 kts | 127° |
| 2026-04-25 16:21 | 21.54317 | -29.87604 | 41082 ft | 563 kts | 127° |
| 2026-04-25 16:21 | 21.49985 | -29.80612 | 41085 ft | 563 kts | 127° |
| 2026-04-25 16:22 | 21.45555 | -29.73677 | 41078 ft | 561 kts | 129° |
| 2026-04-25 16:22 | 21.41032 | -29.66907 | 41078 ft | 558 kts | 130° |
| 2026-04-25 16:23 | 21.36501 | -29.60125 | 41075 ft | 558 kts | 129° |
| 2026-04-25 16:23 | 21.32026 | -29.53384 | 41085 ft | 558 kts | 129° |
| 2026-04-25 16:24 | 21.27527 | -29.46591 | 41082 ft | 558 kts | 129° |
| 2026-04-25 16:24 | 21.22998 | -29.39757 | 41069 ft | 557 kts | 129° |
| 2026-04-25 16:25 | 21.19262 | -29.34126 | 41070 ft | 556 kts | 129° |
| 2026-04-25 16:25 | 21.14057 | -29.26294 | 41070 ft | 555 kts | 129° |
| 2026-04-25 16:26 | 21.09569 | -29.19551 | 41067 ft | 555 kts | 129° |
| 2026-04-25 16:26 | 21.05087 | -29.12824 | 41067 ft | 555 kts | 129° |
| 2026-04-25 16:27 | 21.00608 | -29.06111 | 41060 ft | 554 kts | 129° |
| 2026-04-25 16:27 | 20.96134 | -28.99411 | 41064 ft | 552 kts | 129° |
| 2026-04-25 16:28 | 20.91670 | -28.92735 | 41067 ft | 552 kts | 129° |
| 2026-04-25 16:28 | 20.87195 | -28.86052 | 41064 ft | 553 kts | 129° |
| 2026-04-25 16:29 | 20.82715 | -28.79368 | 41061 ft | 553 kts | 129° |
| 2026-04-25 16:29 | 20.78238 | -28.72696 | 41055 ft | 552 kts | 129° |
| 2026-04-25 16:30 | 20.73767 | -28.66041 | 41053 ft | 550 kts | 129° |
| 2026-04-25 16:30 | 20.69308 | -28.59410 | 41056 ft | 549 kts | 129° |
| 2026-04-25 16:31 | 20.64849 | -28.52789 | 41055 ft | 549 kts | 129° |
| 2026-04-25 16:31 | 20.60392 | -28.46179 | 41053 ft | 549 kts | 129° |
| 2026-04-25 16:32 | 20.55923 | -28.39558 | 41037 ft | 548 kts | 129° |
| 2026-04-25 16:32 | 20.51478 | -28.32978 | 41048 ft | 546 kts | 129° |
| 2026-04-25 16:33 | 20.47041 | -28.26417 | 41045 ft | 545 kts | 129° |
| 2026-04-25 16:33 | 20.42609 | -28.19873 | 41045 ft | 545 kts | 129° |
| 2026-04-25 16:34 | 20.38197 | -28.13367 | 41039 ft | 545 kts | 129° |
| 2026-04-25 16:34 | 20.33738 | -28.06799 | 41053 ft | 545 kts | 129° |
| 2026-04-25 16:35 | 20.29319 | -28.00295 | 41040 ft | 544 kts | 129° |
| 2026-04-25 16:35 | 20.24874 | -27.93761 | 41040 ft | 544 kts | 129° |
| 2026-04-25 16:36 | 20.20436 | -27.87244 | 41040 ft | 544 kts | 129° |
| 2026-04-25 16:36 | 20.15988 | -27.80721 | 41037 ft | 543 kts | 129° |
| 2026-04-25 16:37 | 20.11546 | -27.74212 | 41037 ft | 543 kts | 130° |
| 2026-04-25 16:37 | 20.07103 | -27.67710 | 41034 ft | 542 kts | 130° |
| 2026-04-25 16:38 | 20.02685 | -27.61251 | 41036 ft | 540 kts | 130° |
| 2026-04-25 16:38 | 19.98258 | -27.54786 | 41032 ft | 540 kts | 130° |
| 2026-04-25 16:39 | 19.93829 | -27.48326 | 41032 ft | 540 kts | 130° |
| 2026-04-25 16:39 | 19.90149 | -27.42963 | 41030 ft | 540 kts | 130° |
| 2026-04-25 16:40 | 19.84992 | -27.35458 | 41016 ft | 541 kts | 130° |
| 2026-04-25 16:40 | 19.80568 | -27.29024 | 41024 ft | 539 kts | 130° |
| 2026-04-25 16:41 | 19.76146 | -27.22602 | 41025 ft | 538 kts | 130° |
| 2026-04-25 16:41 | 19.70261 | -27.14066 | 41027 ft | 538 kts | 130° |
| 2026-04-25 16:42 | 19.65834 | -27.07653 | 41023 ft | 538 kts | 130° |
| 2026-04-25 16:42 | 19.61404 | -27.01242 | 41025 ft | 538 kts | 130° |
| 2026-04-25 16:43 | 19.56985 | -26.94853 | 41021 ft | 537 kts | 130° |
| 2026-04-25 16:43 | 19.52574 | -26.88481 | 41022 ft | 536 kts | 130° |
| 2026-04-25 16:44 | 19.48152 | -26.82103 | 41025 ft | 536 kts | 130° |
| 2026-04-25 16:44 | 19.43725 | -26.75723 | 41024 ft | 536 kts | 130° |
| 2026-04-25 16:45 | 19.39302 | -26.69355 | 41018 ft | 536 kts | 130° |
| 2026-04-25 16:45 | 19.34878 | -26.62993 | 41018 ft | 536 kts | 130° |
| 2026-04-25 16:46 | 19.30454 | -26.56638 | 41013 ft | 536 kts | 130° |
| 2026-04-25 16:46 | 19.26774 | -26.51356 | 41016 ft | 536 kts | 130° |
| 2026-04-25 16:47 | 19.21600 | -26.43937 | 41010 ft | 536 kts | 130° |
| 2026-04-25 16:47 | 19.17201 | -26.37637 | 41009 ft | 536 kts | 130° |
| 2026-04-25 16:48 | 19.12757 | -26.31279 | 41010 ft | 536 kts | 130° |
| 2026-04-25 16:48 | 19.08330 | -26.24951 | 41007 ft | 535 kts | 130° |
| 2026-04-25 16:49 | 19.03905 | -26.18632 | 41008 ft | 534 kts | 130° |
| 2026-04-25 16:49 | 18.99471 | -26.12309 | 41005 ft | 534 kts | 130° |
| 2026-04-25 16:50 | 18.95045 | -26.06003 | 41004 ft | 534 kts | 130° |
| 2026-04-25 16:50 | 18.90638 | -25.99673 | 41003 ft | 535 kts | 130° |
| 2026-04-25 16:51 | 18.86259 | -25.93331 | 40983 ft | 535 kts | 130° |
| 2026-04-25 16:51 | 18.82618 | -25.88067 | 40999 ft | 534 kts | 130° |
| 2026-04-25 16:52 | 18.77498 | -25.80685 | 40999 ft | 533 kts | 130° |
| 2026-04-25 16:52 | 18.73146 | -25.74424 | 40999 ft | 533 kts | 130° |
| 2026-04-25 16:53 | 18.66559 | -25.64957 | 40996 ft | 533 kts | 130° |
| 2026-04-25 16:54 | 18.62179 | -25.58672 | 40995 ft | 533 kts | 130° |
| 2026-04-25 16:54 | 18.57783 | -25.52368 | 40992 ft | 533 kts | 130° |
| 2026-04-25 16:55 | 18.53389 | -25.46072 | 40995 ft | 532 kts | 130° |
| 2026-04-25 16:55 | 18.49000 | -25.39792 | 40993 ft | 532 kts | 130° |
| 2026-04-25 16:56 | 18.44604 | -25.33507 | 40990 ft | 532 kts | 130° |
| 2026-04-25 16:56 | 18.40215 | -25.27238 | 40991 ft | 532 kts | 130° |
| 2026-04-25 16:57 | 18.35827 | -25.20977 | 40988 ft | 532 kts | 130° |
| 2026-04-25 16:57 | 18.31428 | -25.14706 | 40979 ft | 531 kts | 130° |
| 2026-04-25 16:58 | 18.27045 | -25.08463 | 40978 ft | 530 kts | 130° |
| 2026-04-25 16:58 | 18.22656 | -25.02219 | 40984 ft | 530 kts | 130° |
| 2026-04-25 16:59 | 18.18267 | -24.95981 | 40980 ft | 530 kts | 130° |
| 2026-04-25 16:59 | 18.13877 | -24.89747 | 40997 ft | 530 kts | 130° |
| 2026-04-25 17:00 | 18.09485 | -24.83517 | 40999 ft | 530 kts | 130° |
| 2026-04-25 17:00 | 18.05102 | -24.77305 | 40980 ft | 529 kts | 130° |
| 2026-04-25 17:01 | 18.00708 | -24.71082 | 40982 ft | 529 kts | 130° |
| 2026-04-25 17:01 | 17.96349 | -24.64915 | 40981 ft | 529 kts | 130° |
| 2026-04-25 17:02 | 17.91963 | -24.58717 | 40978 ft | 529 kts | 130° |
| 2026-04-25 17:02 | 17.87586 | -24.52537 | 40978 ft | 529 kts | 130° |
| 2026-04-25 17:03 | 17.83184 | -24.46328 | 40975 ft | 529 kts | 130° |
| 2026-04-25 17:03 | 17.78795 | -24.40143 | 40974 ft | 527 kts | 130° |
| 2026-04-25 17:04 | 17.74383 | -24.33930 | 40970 ft | 527 kts | 130° |
| 2026-04-25 17:04 | 17.70029 | -24.27811 | 40973 ft | 527 kts | 130° |
| 2026-04-25 17:05 | 17.65606 | -24.21661 | 40968 ft | 527 kts | 131° |
| 2026-04-25 17:05 | 17.58960 | -24.12453 | 40968 ft | 527 kts | 131° |
| 2026-04-25 17:06 | 17.54543 | -24.06329 | 40963 ft | 527 kts | 131° |
| 2026-04-25 17:06 | 17.50132 | -24.00215 | 40966 ft | 524 kts | 131° |
| 2026-04-25 17:07 | 17.45734 | -23.94125 | 40968 ft | 524 kts | 131° |
| 2026-04-25 17:07 | 17.41334 | -23.88039 | 40964 ft | 524 kts | 131° |
| 2026-04-25 17:08 | 17.36933 | -23.81957 | 40965 ft | 524 kts | 131° |
| 2026-04-25 17:08 | 17.32528 | -23.75874 | 40961 ft | 524 kts | 131° |
| 2026-04-25 17:09 | 17.28121 | -23.69794 | 40948 ft | 524 kts | 131° |
| 2026-04-25 17:09 | 17.23729 | -23.63740 | 40962 ft | 522 kts | 131° |
| 2026-04-25 17:10 | 17.19337 | -23.57690 | 40955 ft | 521 kts | 131° |
| 2026-04-25 17:10 | 17.14946 | -23.51650 | 40955 ft | 521 kts | 131° |
| 2026-04-25 17:11 | 17.10559 | -23.45619 | 40953 ft | 521 kts | 131° |
| 2026-04-25 17:11 | 17.06191 | -23.39621 | 40955 ft | 521 kts | 131° |
| 2026-04-25 17:12 | 17.01799 | -23.33594 | 40956 ft | 521 kts | 131° |
| 2026-04-25 17:12 | 16.97408 | -23.27573 | 40953 ft | 520 kts | 131° |
| 2026-04-25 17:13 | 16.94475 | -23.23553 | 40953 ft | 519 kts | 131° |
| 2026-04-25 17:13 | 16.88648 | -23.15576 | 40951 ft | 519 kts | 131° |
| 2026-04-25 17:14 | 16.84265 | -23.09583 | 40943 ft | 519 kts | 131° |
| 2026-04-25 17:14 | 16.79877 | -23.03587 | 40940 ft | 519 kts | 131° |
| 2026-04-25 17:15 | 16.75510 | -22.97574 | 40935 ft | 520 kts | 128° |
| 2026-04-25 17:15 | 16.72187 | -22.90827 | 40936 ft | 526 kts | 114° |
| 2026-04-25 17:16 | 16.69605 | -22.83679 | 40940 ft | 527 kts | 112° |
| 2026-04-25 17:16 | 16.67146 | -22.76489 | 40951 ft | 527 kts | 111° |
| 2026-04-25 17:17 | 16.64667 | -22.69281 | 40940 ft | 528 kts | 112° |
| 2026-04-25 17:17 | 16.62167 | -22.62093 | 40942 ft | 528 kts | 112° |
| 2026-04-25 17:18 | 16.59669 | -22.54952 | 40940 ft | 528 kts | 112° |
| 2026-04-25 17:18 | 16.57149 | -22.47759 | 40940 ft | 528 kts | 112° |
| 2026-04-25 17:19 | 16.54631 | -22.40576 | 40939 ft | 528 kts | 112° |
| 2026-04-25 17:19 | 16.52094 | -22.33347 | 40940 ft | 528 kts | 112° |
| 2026-04-25 17:20 | 16.49583 | -22.26202 | 40912 ft | 528 kts | 112° |
| 2026-04-25 17:20 | 16.47054 | -22.19013 | 40932 ft | 526 kts | 112° |
| 2026-04-25 17:21 | 16.44538 | -22.11867 | 40934 ft | 525 kts | 112° |
| 2026-04-25 17:21 | 16.42019 | -22.04727 | 40934 ft | 526 kts | 112° |
| 2026-04-25 17:22 | 16.40331 | -21.99945 | 40933 ft | 525 kts | 112° |
| 2026-04-25 17:22 | 16.36971 | -21.90439 | 40927 ft | 525 kts | 112° |
| 2026-04-25 17:23 | 16.34851 | -21.84448 | 40929 ft | 526 kts | 112° |
| 2026-04-25 17:23 | 16.32335 | -21.77347 | 40931 ft | 526 kts | 112° |
| 2026-04-25 17:24 | 16.29799 | -21.70198 | 40928 ft | 526 kts | 112° |
| 2026-04-25 17:24 | 16.27262 | -21.63054 | 40925 ft | 526 kts | 112° |
| 2026-04-25 17:25 | 16.24702 | -21.55923 | 40925 ft | 526 kts | 112° |
| 2026-04-25 17:25 | 16.22136 | -21.48802 | 40924 ft | 525 kts | 112° |
| 2026-04-25 17:26 | 16.19577 | -21.41695 | 40922 ft | 524 kts | 112° |
| 2026-04-25 17:26 | 16.17019 | -21.34590 | 40922 ft | 524 kts | 112° |
| 2026-04-25 17:27 | 16.14458 | -21.27485 | 40921 ft | 524 kts | 112° |
| 2026-04-25 17:27 | 16.12333 | -21.21596 | 40920 ft | 524 kts | 112° |
| 2026-04-25 17:28 | 16.09329 | -21.13279 | 40923 ft | 524 kts | 112° |
| 2026-04-25 17:28 | 16.06759 | -21.06176 | 40917 ft | 525 kts | 112° |
| 2026-04-25 17:29 | 16.04189 | -20.99079 | 40914 ft | 525 kts | 112° |
| 2026-04-25 17:29 | 16.01608 | -20.91961 | 40914 ft | 525 kts | 112° |
| 2026-04-25 17:30 | 15.99130 | -20.85132 | 40906 ft | 525 kts | 112° |
| 2026-04-25 17:30 | 15.96556 | -20.78050 | 40912 ft | 523 kts | 112° |
| 2026-04-25 17:31 | 15.93984 | -20.70981 | 40909 ft | 522 kts | 112° |
| 2026-04-25 17:31 | 15.91417 | -20.63933 | 40908 ft | 522 kts | 112° |
| 2026-04-25 17:32 | 15.88844 | -20.56876 | 40908 ft | 522 kts | 112° |
| 2026-04-25 17:32 | 15.86273 | -20.49834 | 40906 ft | 522 kts | 112° |
| 2026-04-25 17:33 | 15.83693 | -20.42774 | 40906 ft | 522 kts | 112° |
| 2026-04-25 17:33 | 15.81112 | -20.35720 | 40903 ft | 522 kts | 112° |
| 2026-04-25 17:34 | 15.78530 | -20.28674 | 40902 ft | 522 kts | 112° |
| 2026-04-25 17:34 | 15.75947 | -20.21631 | 40903 ft | 522 kts | 112° |
| 2026-04-25 17:35 | 15.73360 | -20.14585 | 40902 ft | 522 kts | 112° |
| 2026-04-25 17:35 | 15.70778 | -20.07559 | 40900 ft | 520 kts | 112° |
| 2026-04-25 17:36 | 15.68218 | -20.00603 | 40895 ft | 519 kts | 112° |
| 2026-04-25 17:36 | 15.65700 | -19.93610 | 40894 ft | 519 kts | 111° |
| 2026-04-25 17:37 | 15.63207 | -19.86593 | 40893 ft | 519 kts | 112° |
| 2026-04-25 17:37 | 15.60702 | -19.79571 | 40894 ft | 519 kts | 112° |
| 2026-04-25 17:38 | 15.58601 | -19.73694 | 40897 ft | 518 kts | 112° |
| 2026-04-25 17:38 | 15.55685 | -19.65548 | 40889 ft | 518 kts | 112° |
| 2026-04-25 17:39 | 15.53173 | -19.58541 | 40888 ft | 518 kts | 112° |
| 2026-04-25 17:39 | 15.50658 | -19.51534 | 40886 ft | 518 kts | 112° |
| 2026-04-25 17:40 | 15.49410 | -19.48059 | 40745 ft | 518 kts | 112° |
| 2026-04-25 17:40 | 15.48150 | -19.44554 | 40505 ft | 519 kts | 112° |
| 2026-04-25 17:40 | 15.46868 | -19.41055 | 40248 ft | 519 kts | 114° |
| 2026-04-25 17:40 | 15.45354 | -19.37666 | 39996 ft | 518 kts | 118° |
| 2026-04-25 17:41 | 15.43746 | -19.34319 | 39753 ft | 519 kts | 118° |
| 2026-04-25 17:41 | 15.42125 | -19.30974 | 39509 ft | 519 kts | 118° |
| 2026-04-25 17:41 | 15.40510 | -19.27636 | 39282 ft | 520 kts | 118° |
| 2026-04-25 17:41 | 15.38888 | -19.24281 | 39057 ft | 522 kts | 118° |
| 2026-04-25 17:42 | 15.37281 | -19.20953 | 38822 ft | 523 kts | 118° |
| 2026-04-25 17:42 | 15.35656 | -19.17591 | 38350 ft | 519 kts | 118° |
| 2026-04-25 17:42 | 15.34039 | -19.14244 | 37552 ft | 520 kts | 117° |
| 2026-04-25 17:42 | 15.32419 | -19.10893 | 36699 ft | 523 kts | 117° |
| 2026-04-25 17:43 | 15.30789 | -19.07523 | 35880 ft | 525 kts | 117° |
| 2026-04-25 17:43 | 15.29144 | -19.04124 | 35028 ft | 528 kts | 117° |
| 2026-04-25 17:43 | 15.27493 | -19.00712 | 34198 ft | 531 kts | 116° |
| 2026-04-25 17:43 | 15.25835 | -18.97287 | 33284 ft | 534 kts | 116° |
| 2026-04-25 17:44 | 15.24166 | -18.93842 | 32356 ft | 536 kts | 116° |
| 2026-04-25 17:44 | 15.22489 | -18.90381 | 31466 ft | 538 kts | 116° |
| 2026-04-25 17:44 | 15.20814 | -18.86925 | 30716 ft | 536 kts | 116° |
| 2026-04-25 17:44 | 15.19150 | -18.83496 | 30079 ft | 532 kts | 116° |
| 2026-04-25 17:45 | 15.17492 | -18.80080 | 29425 ft | 527 kts | 116° |
| 2026-04-25 17:45 | 15.16935 | -18.78930 | 29253 ft | 524 kts | 116° |
| 2026-04-25 17:45 | 15.14242 | -18.73386 | 28277 ft | 514 kts | 116° |
| 2026-04-25 17:45 | 15.12645 | -18.70099 | 27696 ft | 508 kts | 116° |
| 2026-04-25 17:46 | 15.11061 | -18.66842 | 27099 ft | 502 kts | 116° |
| 2026-04-25 17:46 | 15.09498 | -18.63628 | 26515 ft | 497 kts | 116° |
| 2026-04-25 17:46 | 15.07948 | -18.60442 | 25944 ft | 492 kts | 116° |
| 2026-04-25 17:46 | 15.06420 | -18.57303 | 25388 ft | 486 kts | 116° |
| 2026-04-25 17:47 | 15.04906 | -18.54193 | 24827 ft | 481 kts | 116° |
| 2026-04-25 17:47 | 15.03408 | -18.51119 | 24271 ft | 476 kts | 116° |
| 2026-04-25 17:47 | 15.01946 | -18.48118 | 23738 ft | 471 kts | 116° |
| 2026-04-25 17:47 | 15.00479 | -18.45111 | 23124 ft | 466 kts | 116° |
| 2026-04-25 17:48 | 14.97587 | -18.39180 | 21763 ft | 458 kts | 117° |
| 2026-04-25 17:48 | 14.96161 | -18.36260 | 21110 ft | 454 kts | 117° |
| 2026-04-25 17:48 | 14.94742 | -18.33354 | 20473 ft | 450 kts | 117° |
| 2026-04-25 17:49 | 14.93337 | -18.30478 | 19828 ft | 446 kts | 117° |
| 2026-04-25 17:49 | 14.91944 | -18.27627 | 19193 ft | 443 kts | 118° |
| 2026-04-25 17:49 | 14.90563 | -18.24801 | 18577 ft | 439 kts | 118° |
| 2026-04-25 17:49 | 14.89184 | -18.21982 | 17945 ft | 436 kts | 118° |
| 2026-04-25 17:50 | 14.87825 | -18.19205 | 17299 ft | 430 kts | 118° |
| 2026-04-25 17:50 | 14.86484 | -18.16466 | 16723 ft | 425 kts | 118° |
| 2026-04-25 17:50 | 14.85158 | -18.13758 | 16107 ft | 419 kts | 118° |
| 2026-04-25 17:50 | 14.83847 | -18.11080 | 15499 ft | 414 kts | 118° |
| 2026-04-25 17:51 | 14.82556 | -18.08446 | 14917 ft | 409 kts | 118° |
| 2026-04-25 17:51 | 14.81275 | -18.05834 | 14339 ft | 404 kts | 118° |
| 2026-04-25 17:51 | 14.80012 | -18.03258 | 13779 ft | 399 kts | 119° |
| 2026-04-25 17:51 | 14.78765 | -18.00715 | 13141 ft | 395 kts | 119° |
| 2026-04-25 17:52 | 14.77529 | -17.98195 | 12460 ft | 391 kts | 119° |
| 2026-04-25 17:52 | 14.77116 | -17.97354 | 12220 ft | 389 kts | 119° |
| 2026-04-25 17:52 | 14.75098 | -17.93247 | 11176 ft | 382 kts | 118° |
| 2026-04-25 17:52 | 14.73908 | -17.90824 | 10813 ft | 371 kts | 118° |
| 2026-04-25 17:53 | 14.72768 | -17.88500 | 10574 ft | 356 kts | 118° |
| 2026-04-25 17:53 | 14.71670 | -17.86262 | 10357 ft | 342 kts | 120° |
| 2026-04-25 17:53 | 14.70615 | -17.84115 | 10141 ft | 329 kts | 118° |
| 2026-04-25 17:53 | 14.69601 | -17.82052 | 9982 ft | 315 kts | 119° |
| 2026-04-25 17:54 | 14.68625 | -17.80070 | 9751 ft | 305 kts | 118° |
| 2026-04-25 17:54 | 14.67674 | -17.78139 | 9378 ft | 300 kts | 118° |
| 2026-04-25 17:54 | 14.66726 | -17.76218 | 8880 ft | 300 kts | 118° |
| 2026-04-25 17:54 | 14.65778 | -17.74297 | 8367 ft | 301 kts | 118° |
| 2026-04-25 17:55 | 14.64838 | -17.72392 | 7899 ft | 301 kts | 117° |
| 2026-04-25 17:55 | 14.63895 | -17.70478 | 7464 ft | 299 kts | 117° |
| 2026-04-25 17:55 | 14.62952 | -17.68564 | 7053 ft | 297 kts | 117° |
| 2026-04-25 17:55 | 14.62019 | -17.66671 | 6658 ft | 295 kts | 116° |
| 2026-04-25 17:56 | 14.61089 | -17.64783 | 6199 ft | 295 kts | 116° |
| 2026-04-25 17:56 | 14.60158 | -17.62895 | 6027 ft | 295 kts | 115° |
| 2026-04-25 17:56 | 14.59225 | -17.61003 | 6006 ft | 296 kts | 115° |
| 2026-04-25 17:56 | 14.58298 | -17.59122 | 6005 ft | 294 kts | 115° |
| 2026-04-25 17:57 | 14.57368 | -17.57237 | 5997 ft | 293 kts | 115° |
| 2026-04-25 17:57 | 14.56445 | -17.55364 | 5997 ft | 292 kts | 115° |
| 2026-04-25 17:57 | 14.55519 | -17.53489 | 6001 ft | 293 kts | 115° |
| 2026-04-25 17:57 | 14.55206 | -17.52855 | 6005 ft | 293 kts | 115° |
| 2026-04-25 17:58 | 14.53663 | -17.49729 | 6004 ft | 295 kts | 115° |
| 2026-04-25 17:58 | 14.52737 | -17.47857 | 6005 ft | 293 kts | 115° |
| 2026-04-25 17:58 | 14.51809 | -17.45978 | 6002 ft | 292 kts | 116° |
| 2026-04-25 17:58 | 14.50892 | -17.44123 | 6002 ft | 292 kts | 115° |
| 2026-04-25 17:59 | 14.49965 | -17.42248 | 5995 ft | 293 kts | 115° |
| 2026-04-25 17:59 | 14.49039 | -17.40377 | 6002 ft | 294 kts | 115° |
| 2026-04-25 17:59 | 14.48108 | -17.38494 | 6003 ft | 294 kts | 115° |
| 2026-04-25 17:59 | 14.47182 | -17.36623 | 5999 ft | 293 kts | 115° |
| 2026-04-25 18:00 | 14.46254 | -17.34746 | 6001 ft | 292 kts | 115° |
| 2026-04-25 18:00 | 14.45333 | -17.32886 | 6003 ft | 291 kts | 115° |
| 2026-04-25 18:00 | 14.44407 | -17.31015 | 5993 ft | 293 kts | 115° |
| 2026-04-25 18:00 | 14.43506 | -17.29202 | 5995 ft | 269 kts | 115° |
| 2026-04-25 18:01 | 14.42684 | -17.27549 | 6005 ft | 253 kts | 114° |
| 2026-04-25 18:01 | 14.41761 | -17.26024 | 5987 ft | 251 kts | 132° |
| 2026-04-25 18:01 | 14.40310 | -17.25033 | 6005 ft | 254 kts | 158° |
| 2026-04-25 18:01 | 14.38644 | -17.24423 | 5995 ft | 254 kts | 163° |
| 2026-04-25 18:02 | 14.36951 | -17.23888 | 5993 ft | 254 kts | 163° |
| 2026-04-25 18:02 | 14.35265 | -17.23371 | 5995 ft | 252 kts | 164° |
| 2026-04-25 18:02 | 14.33572 | -17.22858 | 5741 ft | 256 kts | 164° |
| 2026-04-25 18:02 | 14.31934 | -17.22163 | 5403 ft | 254 kts | 144° |
| 2026-04-25 18:03 | 14.30801 | -17.20856 | 5129 ft | 246 kts | 114° |
| 2026-04-25 18:03 | 14.30434 | -17.19172 | 4819 ft | 235 kts | 83° |
| 2026-04-25 18:03 | 14.30927 | -17.17623 | 4552 ft | 223 kts | 52° |
| 2026-04-25 18:03 | 14.31859 | -17.16389 | 4333 ft | 216 kts | 45° |
| 2026-04-25 18:04 | 14.32854 | -17.15237 | 4026 ft | 215 kts | 44° |
| 2026-04-25 18:04 | 14.33887 | -17.14088 | 3723 ft | 228 kts | 44° |
| 2026-04-25 18:04 | 14.34982 | -17.12884 | 3400 ft | 231 kts | 43° |
| 2026-04-25 18:04 | 14.36080 | -17.11675 | 3098 ft | 229 kts | 44° |
| 2026-04-25 18:05 | 14.37159 | -17.10490 | 3002 ft | 227 kts | 44° |
| 2026-04-25 18:05 | 14.38250 | -17.09308 | 2990 ft | 227 kts | 44° |
| 2026-04-25 18:05 | 14.39383 | -17.08181 | 2989 ft | 225 kts | 37° |
| 2026-04-25 18:05 | 14.40746 | -17.07434 | 2998 ft | 222 kts | 16° |
| 2026-04-25 18:06 | 14.42275 | -17.07172 | 2993 ft | 224 kts | 2° |
| 2026-04-25 18:06 | 14.43828 | -17.07161 | 2989 ft | 218 kts | 359° |
| 2026-04-25 18:06 | 14.44825 | -17.07171 | 2991 ft | 207 kts | 359° |
| 2026-04-25 18:06 | 14.46229 | -17.07181 | 3015 ft | 194 kts | 0° |
| 2026-04-25 18:07 | 14.47503 | -17.07189 | 3028 ft | 180 kts | 0° |
| 2026-04-25 18:07 | 14.48769 | -17.07192 | 3008 ft | 179 kts | 1° |
| 2026-04-25 18:07 | 14.49992 | -17.07193 | 2996 ft | 177 kts | 360° |
| 2026-04-25 18:07 | 14.51222 | -17.07200 | 2950 ft | 178 kts | 0° |
| 2026-04-25 18:08 | 14.52464 | -17.07208 | 2736 ft | 178 kts | 359° |
| 2026-04-25 18:08 | 14.53701 | -17.07217 | 2494 ft | 177 kts | 1° |
| 2026-04-25 18:08 | 14.54915 | -17.07223 | 2276 ft | 168 kts | 1° |
| 2026-04-25 18:08 | 14.56025 | -17.07230 | 2068 ft | 151 kts | 2° |
| 2026-04-25 18:09 | 14.57026 | -17.07235 | 1887 ft | 138 kts | 3° |
| 2026-04-25 18:09 | 14.57966 | -17.07238 | 1727 ft | 135 kts | 1° |
| 2026-04-25 18:09 | 14.58895 | -17.07245 | 1549 ft | 130 kts | 3° |
| 2026-04-25 18:09 | 14.59497 | -17.07247 | 1427 ft | 126 kts | 1° |
| 2026-04-25 18:10 | 14.60626 | -17.07252 | 1223 ft | 119 kts | 0° |
| 2026-04-25 18:10 | 14.61455 | -17.07257 | 1060 ft | 119 kts | 359° |
| 2026-04-25 18:10 | 14.62296 | -17.07262 | 918 ft | 123 kts | 358° |
| 2026-04-25 18:10 | 14.63157 | -17.07266 | 773 ft | 124 kts | 360° |
| 2026-04-25 18:11 | 14.64014 | -17.07271 | 595 ft | 119 kts | 360° |
| 2026-04-25 18:11 | 14.64822 | -17.07275 | 450 ft | 117 kts | 358° |
| 2026-04-25 18:11 | 14.65639 | -17.07280 | 310 ft | 117 kts | 358° |
| 2026-04-25 18:11 | 14.66394 | -17.07284 | 270 ft | 86 kts | 1° |
| 2026-04-25 18:12 | 14.67031 | -17.07279 | 274 ft | 93 kts | 360° |
| 2026-04-25 18:12 | 14.67573 | -17.07277 | 268 ft | 56 kts | 5° |
| 2026-04-25 18:12 | 14.67796 | -17.07192 | 268 ft | 18 kts | 32° |
| 2026-04-25 18:12 | 14.67817 | -17.07117 | 270 ft | 11 kts | 138° |
| 2026-04-25 18:13 | 14.67745 | -17.07097 | 272 ft | 11 kts | 177° |
| 2026-04-25 18:13 | 14.67658 | -17.07094 | 273 ft | 14 kts | 179° |
| 2026-04-25 18:13 | 14.67542 | -17.07061 | 276 ft | 15 kts | 115° |
| 2026-04-25 18:14 | 14.67656 | -17.06985 | 277 ft | 12 kts | 359° |
| 2026-04-25 18:14 | 14.67737 | -17.06985 | 278 ft | 12 kts | 360° |
| 2026-04-25 18:14 | 14.67821 | -17.06985 | 278 ft | 12 kts | 8° |
| 2026-04-25 18:14 | 14.67850 | -17.06943 | 278 ft | 8 kts | 76° |
| 2026-04-25 18:15 | 14.67849 | -17.06909 | 278 ft | 0 kts | 96° |
| 2026-04-25 18:15 | 14.67849 | -17.06896 | 278 ft | 0 kts | 90° |
| 2026-04-25 18:15 | 14.67849 | -17.06887 | 278 ft | 0 kts | 90° |
| 2026-04-25 18:15 | 14.67849 | -17.06886 | 278 ft | 0 kts | 90° |